Observation data for Sierra Blanca on 01/18/2019      Previous  Date  Next       Current Mesonet Observations  Soil Data  Daily Summary Page  Observations in Plain Language
KSB1 180600Z 23004KT 10/M00 A3015 RMK A01 T01001002  RH  049%=      5-min Rain = 0
KSB1 180601Z 23004KT 10/M00 A3015 RMK A01 T00991001  RH  050%=      5-min Rain = 0
KSB1 180602Z 24004KT 10/M00 A3015 RMK A01 T00991001  RH  050%=      5-min Rain = 0
KSB1 180603Z 24004KT 10/M00 A3015 RMK A01 T00981001  RH  050%=      5-min Rain = 0
KSB1 180604Z 24005KT 10/00 A3015 RMK A01 T009800-0  RH  050%=      5-min Rain = 0
KSB1 180605Z 24007KT 10/M00 A3015 RMK A01 T00961001  RH  051%=      5-min Rain = 0
KSB1 180606Z 24008KT 09/M00 A3015 RMK A01 T00941001  RH  052%=      5-min Rain = 0
KSB1 180607Z 24009KT 09/00 A3015 RMK A01 T00920000  RH  053%=      5-min Rain = 0
KSB1 180608Z 23009KT 09/00 A3015 RMK A01 T00910002  RH  053%=      5-min Rain = 0
KSB1 180609Z 23010KT 09/00 A3015 RMK A01 T00920002  RH  054%=      5-min Rain = 0
KSB1 180610Z 24010KT 09/00 A3015 RMK A01 T00930004  RH  054%=      5-min Rain = 0
KSB1 180611Z 24010KT 09/00 A3015 RMK A01 T00940004  RH  053%=      5-min Rain = 0
KSB1 180612Z 24011KT 10/00 A3015 RMK A01 T00950004  RH  053%=      5-min Rain = 0
KSB1 180613Z 23010KT 10/01 A3015 RMK A01 T00960005  RH  053%=      5-min Rain = 0
KSB1 180614Z 24011KT 10/00 A3015 RMK A01 T00960004  RH  053%=      5-min Rain = 0
KSB1 180615Z 23010KT 10/01 A3015 RMK A01 T00970005  RH  053%=      5-min Rain = 0
KSB1 180616Z 23011KT 10/01 A3015 RMK A01 T00970005  RH  053%=      5-min Rain = 0
KSB1 180617Z 23011KT 10/01 A3015 RMK A01 T00970006  RH  053%=      5-min Rain = 0
KSB1 180618Z 24011KT 10/01 A3015 RMK A01 T00970006  RH  053%=      5-min Rain = 0
KSB1 180619Z 24011KT 10/01 A3015 RMK A01 T00980006  RH  053%=      5-min Rain = 0
KSB1 180620Z 24011KT 10/01 A3015 RMK A01 T00980006  RH  053%=      5-min Rain = 0
KSB1 180621Z 24011KT 10/01 A3015 RMK A01 T00990007  RH  053%=      5-min Rain = 0
KSB1 180622Z 23011KT 10/01 A3015 RMK A01 T01000008  RH  053%=      5-min Rain = 0
KSB1 180623Z 23011KT 10/01 A3015 RMK A01 T01010008  RH  052%=      5-min Rain = 0
KSB1 180624Z 23011KT 10/01 A3015 RMK A01 T01010008  RH  052%=      5-min Rain = 0
KSB1 180625Z 23011KT 10/01 A3015 RMK A01 T01020009  RH  052%=      5-min Rain = 0
KSB1 180626Z 23011KT 10/01 A3014 RMK A01 T01030009  RH  052%=      5-min Rain = 0
KSB1 180627Z 23010KT 10/01 A3014 RMK A01 T01030009  RH  052%=      5-min Rain = 0
KSB1 180628Z 23010KT 10/01 A3014 RMK A01 T01030009  RH  052%=      5-min Rain = 0
KSB1 180629Z 23010KT 10/01 A3014 RMK A01 T01030010  RH  052%=      5-min Rain = 0
KSB1 180630Z 23011KT 10/01 A3014 RMK A01 T01030010  RH  053%=      5-min Rain = 0
KSB1 180631Z 23010KT 10/01 A3014 RMK A01 T01020010  RH  053%=      5-min Rain = 0
KSB1 180632Z 23010KT 10/01 A3014 RMK A01 T01020011  RH  053%=      5-min Rain = 0
KSB1 180633Z 23009KT 10/01 A3014 RMK A01 T01020011  RH  053%=      5-min Rain = 0
KSB1 180634Z 23010KT 10/01 A3014 RMK A01 T01010010  RH  053%=      5-min Rain = 0
KSB1 180635Z 23011KT 10/01 A3014 RMK A01 T01010011  RH  054%=      5-min Rain = 0
KSB1 180636Z 23010KT 10/01 A3014 RMK A01 T01020012  RH  054%=      5-min Rain = 0
KSB1 180637Z 23011KT 10/01 A3014 RMK A01 T01020012  RH  054%=      5-min Rain = 0
KSB1 180638Z 23011KT 10/01 A3014 RMK A01 T01020012  RH  054%=      5-min Rain = 0
KSB1 180639Z 23011KT 10/01 A3014 RMK A01 T01030013  RH  054%=      5-min Rain = 0
KSB1 180640Z 23010KT 10/01 A3014 RMK A01 T01040013  RH  053%=      5-min Rain = 0
KSB1 180641Z 23010KT 10/01 A3014 RMK A01 T01040013  RH  053%=      5-min Rain = 0
KSB1 180642Z 23011KT 10/01 A3014 RMK A01 T01040013  RH  053%=      5-min Rain = 0
KSB1 180643Z 23010KT 11/01 A3014 RMK A01 T01050014  RH  053%=      5-min Rain = 0
KSB1 180644Z 23010KT 11/01 A3014 RMK A01 T01050014  RH  053%=      5-min Rain = 0
KSB1 180645Z 23010KT 11/01 A3014 RMK A01 T01050014  RH  053%=      5-min Rain = 0
KSB1 180646Z 23011KT 11/01 A3014 RMK A01 T01050014  RH  053%=      5-min Rain = 0
KSB1 180647Z 23011KT 11/01 A3014 RMK A01 T01050014  RH  053%=      5-min Rain = 0
KSB1 180648Z 23011KT 11/01 A3014 RMK A01 T01050014  RH  053%=      5-min Rain = 0
KSB1 180649Z 23011KT 11/01 A3014 RMK A01 T01050014  RH  053%=      5-min Rain = 0
KSB1 180650Z 23011KT 11/01 A3014 RMK A01 T01050014  RH  053%=      5-min Rain = 0
KSB1 180651Z 23011KT 11/01 A3014 RMK A01 T01050014  RH  053%=      5-min Rain = 0
KSB1 180652Z 23010KT 11/01 A3014 RMK A01 T01050014  RH  053%=      5-min Rain = 0
KSB1 180653Z 23010KT 11/01 A3014 RMK A01 T01050014  RH  053%=      5-min Rain = 0
KSB1 180654Z 23010KT 11/01 A3014 RMK A01 T01050014  RH  053%=      5-min Rain = 0
KSB1 180655Z 23009KT 10/01 A3014 RMK A01 T01040014  RH  054%=      5-min Rain = 0
KSB1 180656Z 24009KT 10/01 A3014 RMK A01 T01040014  RH  054%=      5-min Rain = 0
KSB1 180657Z 24009KT 10/02 A3014 RMK A01 T01030015  RH  054%=      5-min Rain = 0
KSB1 180658Z 23010KT 10/02 A3014 RMK A01 T01030016  RH  055%=      5-min Rain = 0
KSB1 180659Z 24009KT 10/02 A3014 RMK A01 T01030015  RH  055%=      5-min Rain = 0
KSB1 180700Z 23009KT 10/02 A3014 RMK A01 T01030015  RH  054%=      5-min Rain = 0
KSB1 180701Z 23009KT 10/02 A3014 RMK A01 T01030015  RH  054%=      5-min Rain = 0
KSB1 180702Z 23009KT 10/02 A3014 RMK A01 T01020015  RH  055%=      5-min Rain = 0
KSB1 180703Z 23009KT 10/02 A3014 RMK A01 T01010015  RH  055%=      5-min Rain = 0
KSB1 180704Z 23010KT 10/02 A3014 RMK A01 T01010015  RH  055%=      5-min Rain = 0
KSB1 180705Z 23010KT 10/02 A3014 RMK A01 T01030016  RH  055%=      5-min Rain = 0
KSB1 180706Z 23010KT 10/02 A3014 RMK A01 T01030016  RH  055%=      5-min Rain = 0
KSB1 180707Z 23010KT 10/02 A3014 RMK A01 T01030016  RH  055%=      5-min Rain = 0
KSB1 180708Z 23010KT 10/02 A3014 RMK A01 T01040017  RH  055%=      5-min Rain = 0
KSB1 180709Z 23010KT 10/02 A3014 RMK A01 T01040017  RH  054%=      5-min Rain = 0
KSB1 180710Z 23010KT 11/02 A3014 RMK A01 T01050017  RH  054%=      5-min Rain = 0
KSB1 180711Z 23010KT 11/02 A3014 RMK A01 T01050016  RH  054%=      5-min Rain = 0
KSB1 180712Z 23009KT 11/02 A3014 RMK A01 T01050016  RH  054%=      5-min Rain = 0
KSB1 180713Z 23009KT 10/02 A3014 RMK A01 T01040016  RH  054%=      5-min Rain = 0
KSB1 180714Z 23009KT 10/02 A3014 RMK A01 T01040016  RH  054%=      5-min Rain = 0
KSB1 180715Z 23010KT 10/02 A3014 RMK A01 T01030015  RH  055%=      5-min Rain = 0
KSB1 180716Z 23010KT 10/02 A3014 RMK A01 T01040016  RH  055%=      5-min Rain = 0
KSB1 180717Z 23010KT 10/02 A3014 RMK A01 T01040016  RH  055%=      5-min Rain = 0
KSB1 180718Z 24011KT 10/02 A3014 RMK A01 T01040016  RH  055%=      5-min Rain = 0
KSB1 180719Z 24010KT 10/02 A3014 RMK A01 T01030016  RH  055%=      5-min Rain = 0
KSB1 180720Z 24009KT 10/02 A3014 RMK A01 T01040016  RH  055%=      5-min Rain = 0
KSB1 180721Z 24009KT 10/02 A3014 RMK A01 T01030016  RH  055%=      5-min Rain = 0
KSB1 180722Z 24008KT 10/02 A3014 RMK A01 T01020015  RH  055%=      5-min Rain = 0
KSB1 180723Z 24008KT 10/02 A3014 RMK A01 T01000015  RH  055%=      5-min Rain = 0
KSB1 180724Z 24008KT 10/01 A3014 RMK A01 T00990014  RH  056%=      5-min Rain = 0
KSB1 180725Z 24010KT 10/02 A3014 RMK A01 T00990015  RH  056%=      5-min Rain = 0
KSB1 180726Z 23010KT 10/02 A3014 RMK A01 T00990015  RH  056%=      5-min Rain = 0
KSB1 180727Z 23009KT 10/02 A3014 RMK A01 T01000015  RH  056%=      5-min Rain = 0
KSB1 180728Z 23010KT 10/02 A3014 RMK A01 T01000015  RH  055%=      5-min Rain = 0
KSB1 180729Z 24009KT 10/02 A3014 RMK A01 T01010016  RH  055%=      5-min Rain = 0
KSB1 180730Z 24009KT 10/02 A3014 RMK A01 T01020016  RH  055%=      5-min Rain = 0
KSB1 180731Z 24009KT 10/02 A3014 RMK A01 T01030016  RH  055%=      5-min Rain = 0
KSB1 180732Z 24008KT 10/02 A3014 RMK A01 T01020015  RH  055%=      5-min Rain = 0
KSB1 180733Z 25008KT 10/02 A3014 RMK A01 T01000015  RH  055%=      5-min Rain = 0
KSB1 180734Z 24008KT 10/01 A3014 RMK A01 T00990014  RH  056%=      5-min Rain = 0
KSB1 180735Z 23009KT 10/01 A3013 RMK A01 T00970014  RH  056%=      5-min Rain = 0
KSB1 180736Z 23009KT 10/01 A3013 RMK A01 T00960014  RH  056%=      5-min Rain = 0
KSB1 180737Z 24009KT 10/01 A3013 RMK A01 T00960014  RH  057%=      5-min Rain = 0
KSB1 180738Z 24009KT 10/02 A3013 RMK A01 T00960015  RH  057%=      5-min Rain = 0
KSB1 180739Z 24008KT 10/01 A3013 RMK A01 T00950014  RH  057%=      5-min Rain = 0
KSB1 180740Z 24009KT 10/01 A3013 RMK A01 T00950014  RH  057%=      5-min Rain = 0
KSB1 180741Z 24008KT 10/01 A3013 RMK A01 T00950014  RH  057%=      5-min Rain = 0
KSB1 180742Z 24009KT 09/01 A3013 RMK A01 T00940014  RH  057%=      5-min Rain = 0
KSB1 180743Z 24009KT 09/01 A3013 RMK A01 T00930013  RH  057%=      5-min Rain = 0
KSB1 180744Z 24008KT 09/01 A3013 RMK A01 T00930014  RH  058%=      5-min Rain = 0
KSB1 180745Z 24008KT 09/01 A3013 RMK A01 T00930014  RH  058%=      5-min Rain = 0
KSB1 180746Z 24008KT 09/01 A3013 RMK A01 T00930014  RH  058%=      5-min Rain = 0
KSB1 180747Z 24007KT 09/01 A3013 RMK A01 T00920014  RH  058%=      5-min Rain = 0
KSB1 180748Z 24007KT 09/01 A3013 RMK A01 T00910014  RH  059%=      5-min Rain = 0
KSB1 180749Z 24007KT 09/01 A3013 RMK A01 T00900014  RH  059%=      5-min Rain = 0
KSB1 180750Z 24007KT 09/01 A3013 RMK A01 T00900014  RH  059%=      5-min Rain = 0
KSB1 180751Z 24007KT 09/01 A3013 RMK A01 T00890014  RH  059%=      5-min Rain = 0
KSB1 180752Z 24007KT 09/02 A3013 RMK A01 T00890015  RH  060%=      5-min Rain = 0
KSB1 180753Z 24007KT 09/02 A3013 RMK A01 T00900015  RH  060%=      5-min Rain = 0
KSB1 180754Z 24007KT 09/02 A3013 RMK A01 T00900015  RH  059%=      5-min Rain = 0
KSB1 180755Z 24007KT 09/02 A3013 RMK A01 T00900015  RH  059%=      5-min Rain = 0
KSB1 180756Z 24007KT 09/02 A3013 RMK A01 T00890015  RH  060%=      5-min Rain = 0
KSB1 180757Z 24007KT 09/01 A3013 RMK A01 T00880014  RH  060%=      5-min Rain = 0
KSB1 180758Z 24008KT 09/01 A3013 RMK A01 T00870014  RH  060%=      5-min Rain = 0
KSB1 180759Z 24007KT 09/01 A3013 RMK A01 T00870014  RH  060%=      5-min Rain = 0
KSB1 180800Z 23008KT 09/01 A3013 RMK A01 T00870014  RH  060%=      5-min Rain = 0
KSB1 180801Z 23009KT 09/01 A3013 RMK A01 T00860014  RH  060%=      5-min Rain = 0
KSB1 180802Z 24010KT 09/01 A3013 RMK A01 T00870014  RH  060%=      5-min Rain = 0
KSB1 180803Z 24010KT 09/01 A3012 RMK A01 T00870014  RH  060%=      5-min Rain = 0
KSB1 180804Z 23010KT 09/01 A3012 RMK A01 T00870014  RH  060%=      5-min Rain = 0
KSB1 180805Z 24009KT 09/02 A3012 RMK A01 T00890015  RH  060%=      5-min Rain = 0
KSB1 180806Z 24009KT 09/01 A3012 RMK A01 T00890014  RH  059%=      5-min Rain = 0
KSB1 180807Z 24008KT 09/01 A3012 RMK A01 T00900014  RH  059%=      5-min Rain = 0
KSB1 180808Z 24008KT 09/01 A3012 RMK A01 T00890014  RH  059%=      5-min Rain = 0
KSB1 180809Z 24008KT 09/01 A3012 RMK A01 T00880014  RH  060%=      5-min Rain = 0
KSB1 180810Z 24008KT 09/01 A3012 RMK A01 T00870014  RH  060%=      5-min Rain = 0
KSB1 180811Z 24008KT 09/01 A3012 RMK A01 T00870014  RH  060%=      5-min Rain = 0
KSB1 180812Z 24007KT 09/01 A3012 RMK A01 T00870014  RH  060%=      5-min Rain = 0
KSB1 180813Z 24008KT 09/01 A3012 RMK A01 T00870014  RH  060%=      5-min Rain = 0
KSB1 180814Z 24008KT 09/02 A3012 RMK A01 T00870015  RH  060%=      5-min Rain = 0
KSB1 180815Z 24008KT 09/02 A3012 RMK A01 T00890015  RH  060%=      5-min Rain = 0
KSB1 180816Z 24008KT 09/02 A3012 RMK A01 T00890015  RH  060%=      5-min Rain = 0
KSB1 180817Z 24008KT 09/02 A3012 RMK A01 T00890015  RH  060%=      5-min Rain = 0
KSB1 180818Z 24008KT 09/02 A3012 RMK A01 T00890015  RH  060%=      5-min Rain = 0
KSB1 180819Z 24008KT 09/02 A3012 RMK A01 T00890015  RH  060%=      5-min Rain = 0
KSB1 180820Z 25007KT 09/02 A3012 RMK A01 T00900015  RH  059%=      5-min Rain = 0
KSB1 180821Z 24007KT 09/02 A3012 RMK A01 T00900016  RH  060%=      5-min Rain = 0
KSB1 180822Z 24008KT 09/02 A3012 RMK A01 T00900015  RH  059%=      5-min Rain = 0
KSB1 180823Z 24007KT 09/02 A3012 RMK A01 T00910015  RH  059%=      5-min Rain = 0
KSB1 180824Z 24008KT 09/02 A3012 RMK A01 T00920015  RH  059%=      5-min Rain = 0
KSB1 180825Z 24009KT 09/01 A3012 RMK A01 T00920014  RH  058%=      5-min Rain = 0
KSB1 180826Z 24009KT 09/01 A3012 RMK A01 T00910014  RH  058%=      5-min Rain = 0
KSB1 180827Z 24008KT 09/01 A3012 RMK A01 T00900013  RH  059%=      5-min Rain = 0
KSB1 180828Z 24007KT 09/01 A3012 RMK A01 T00890013  RH  059%=      5-min Rain = 0
KSB1 180829Z 24007KT 09/01 A3012 RMK A01 T00860012  RH  060%=      5-min Rain = 0
KSB1 180830Z 24007KT 09/01 A3012 RMK A01 T00850013  RH  061%=      5-min Rain = 0
KSB1 180831Z 24007KT 08/01 A3011 RMK A01 T00840013  RH  061%=      5-min Rain = 0
KSB1 180832Z 24007KT 08/01 A3011 RMK A01 T00840014  RH  061%=      5-min Rain = 0
KSB1 180833Z 24007KT 08/01 A3011 RMK A01 T00830014  RH  062%=      5-min Rain = 0
KSB1 180834Z 24007KT 08/01 A3011 RMK A01 T00830014  RH  062%=      5-min Rain = 0
KSB1 180835Z 24007KT 08/01 A3011 RMK A01 T00840014  RH  062%=      5-min Rain = 0
KSB1 180836Z 24007KT 08/02 A3011 RMK A01 T00840015  RH  062%=      5-min Rain = 0
KSB1 180837Z 24006KT 08/02 A3011 RMK A01 T00840015  RH  062%=      5-min Rain = 0
KSB1 180838Z 24007KT 08/02 A3011 RMK A01 T00840015  RH  062%=      5-min Rain = 0
KSB1 180839Z 25007KT 09/02 A3011 RMK A01 T00850015  RH  061%=      5-min Rain = 0
KSB1 180840Z 25007KT 09/02 A3011 RMK A01 T00850015  RH  061%=      5-min Rain = 0
KSB1 180841Z 25008KT 09/02 A3011 RMK A01 T00860016  RH  061%=      5-min Rain = 0
KSB1 180842Z 25007KT 09/02 A3011 RMK A01 T00880016  RH  061%=      5-min Rain = 0
KSB1 180843Z 25008KT 09/02 A3011 RMK A01 T00890016  RH  060%=      5-min Rain = 0
KSB1 180844Z 25008KT 09/02 A3011 RMK A01 T00900016  RH  060%=      5-min Rain = 0
KSB1 180845Z 24009KT 09/02 A3011 RMK A01 T00900015  RH  059%=      5-min Rain = 0
KSB1 180846Z 24009KT 09/02 A3011 RMK A01 T00900015  RH  059%=      5-min Rain = 0
KSB1 180847Z 24010KT 09/01 A3011 RMK A01 T00890014  RH  059%=      5-min Rain = 0
KSB1 180848Z 24009KT 09/01 A3011 RMK A01 T00890014  RH  059%=      5-min Rain = 0
KSB1 180849Z 25008KT 09/01 A3011 RMK A01 T00890013  RH  059%=      5-min Rain = 0
KSB1 180850Z 25008KT 09/01 A3011 RMK A01 T00870013  RH  060%=      5-min Rain = 0
KSB1 180851Z 24008KT 09/01 A3011 RMK A01 T00850013  RH  061%=      5-min Rain = 0
KSB1 180852Z 24008KT 09/01 A3011 RMK A01 T00850014  RH  061%=      5-min Rain = 0
KSB1 180853Z 24009KT 09/01 A3011 RMK A01 T00850014  RH  061%=      5-min Rain = 0
KSB1 180854Z 24009KT 09/01 A3011 RMK A01 T00850014  RH  061%=      5-min Rain = 0
KSB1 180855Z 24010KT 09/01 A3011 RMK A01 T00870014  RH  060%=      5-min Rain = 0
KSB1 180856Z 24009KT 09/02 A3011 RMK A01 T00890015  RH  060%=      5-min Rain = 0
KSB1 180857Z 24009KT 09/02 A3011 RMK A01 T00900015  RH  059%=      5-min Rain = 0
KSB1 180858Z 25008KT 09/02 A3011 RMK A01 T00910015  RH  059%=      5-min Rain = 0
KSB1 180859Z 25008KT 09/01 A3011 RMK A01 T00890014  RH  059%=      5-min Rain = 0
KSB1 180900Z 25007KT 09/02 A3011 RMK A01 T00870015  RH  060%=      5-min Rain = 0
KSB1 180901Z 25007KT 09/02 A3011 RMK A01 T00860015  RH  061%=      5-min Rain = 0
KSB1 180902Z 24007KT 09/02 A3011 RMK A01 T00870016  RH  061%=      5-min Rain = 0
KSB1 180903Z 24008KT 09/02 A3011 RMK A01 T00860016  RH  061%=      5-min Rain = 0
KSB1 180904Z 24009KT 09/02 A3011 RMK A01 T00860016  RH  061%=      5-min Rain = 0
KSB1 180905Z 25007KT 09/02 A3012 RMK A01 T00860016  RH  061%=      5-min Rain = 0
KSB1 180906Z 26005KT 09/02 A3011 RMK A01 T00870016  RH  061%=      5-min Rain = 0
KSB1 180907Z 27006KT 09/02 A3011 RMK A01 T00870017  RH  061%=      5-min Rain = 0
KSB1 180908Z 27006KT 09/02 A3011 RMK A01 T00890018  RH  061%=      5-min Rain = 0
KSB1 180909Z 25006KT 09/02 A3011 RMK A01 T00900018  RH  060%=      5-min Rain = 0
KSB1 180910Z 25006KT 09/02 A3011 RMK A01 T00910018  RH  060%=      5-min Rain = 0
KSB1 180911Z 25006KT 09/02 A3011 RMK A01 T00910018  RH  060%=      5-min Rain = 0
KSB1 180912Z 25007KT 09/02 A3011 RMK A01 T00910018  RH  060%=      5-min Rain = 0
KSB1 180913Z 24007KT 09/02 A3011 RMK A01 T00920018  RH  060%=      5-min Rain = 0
KSB1 180914Z 24007KT 09/02 A3011 RMK A01 T00920018  RH  060%=      5-min Rain = 0
KSB1 180915Z 24007KT 09/02 A3011 RMK A01 T00920018  RH  060%=      5-min Rain = 0
KSB1 180916Z 24007KT 09/02 A3011 RMK A01 T00920019  RH  060%=      5-min Rain = 0
KSB1 180917Z 25006KT 09/02 A3011 RMK A01 T00920018  RH  060%=      5-min Rain = 0
KSB1 180918Z 25007KT 09/02 A3011 RMK A01 T00930019  RH  060%=      5-min Rain = 0
KSB1 180919Z 25007KT 09/02 A3011 RMK A01 T00930019  RH  060%=      5-min Rain = 0
KSB1 180920Z 24007KT 10/02 A3011 RMK A01 T00950020  RH  059%=      5-min Rain = 0
KSB1 180921Z 24008KT 10/02 A3011 RMK A01 T00970020  RH  059%=      5-min Rain = 0
KSB1 180922Z 25007KT 10/02 A3011 RMK A01 T00970020  RH  058%=      5-min Rain = 0
KSB1 180923Z 27006KT 10/02 A3011 RMK A01 T00980020  RH  058%=      5-min Rain = 0
KSB1 180924Z 27006KT 10/02 A3011 RMK A01 T00980020  RH  059%=      5-min Rain = 0
KSB1 180925Z 28006KT 10/02 A3011 RMK A01 T01000022  RH  058%=      5-min Rain = 0
KSB1 180926Z 27007KT 10/02 A3012 RMK A01 T01040023  RH  057%=      5-min Rain = 0
KSB1 180927Z 26007KT 11/02 A3011 RMK A01 T01070023  RH  056%=      5-min Rain = 0
KSB1 180928Z 26008KT 11/02 A3011 RMK A01 T01080023  RH  055%=      5-min Rain = 0
KSB1 180929Z 25007KT 11/02 A3011 RMK A01 T01090022  RH  055%=      5-min Rain = 0
KSB1 180930Z 25007KT 11/02 A3011 RMK A01 T01100022  RH  054%=      5-min Rain = 0
KSB1 180931Z 26007KT 11/02 A3011 RMK A01 T01100022  RH  054%=      5-min Rain = 0
KSB1 180932Z 26008KT 11/02 A3011 RMK A01 T01100022  RH  055%=      5-min Rain = 0
KSB1 180933Z 25008KT 11/02 A3011 RMK A01 T01100022  RH  054%=      5-min Rain = 0
KSB1 180934Z 25007KT 11/02 A3011 RMK A01 T01100021  RH  054%=      5-min Rain = 0
KSB1 180935Z 25008KT 11/02 A3011 RMK A01 T01090020  RH  054%=      5-min Rain = 0
KSB1 180936Z 25007KT 11/02 A3011 RMK A01 T01070020  RH  055%=      5-min Rain = 0
KSB1 180937Z 25006KT 11/02 A3011 RMK A01 T01070020  RH  055%=      5-min Rain = 0
KSB1 180938Z 26006KT 11/02 A3011 RMK A01 T01070020  RH  055%=      5-min Rain = 0
KSB1 180939Z 26005KT 11/02 A3011 RMK A01 T01070020  RH  055%=      5-min Rain = 0
KSB1 180940Z 28006KT 11/02 A3011 RMK A01 T01070020  RH  055%=      5-min Rain = 0
KSB1 180941Z 27007KT 11/02 A3011 RMK A01 T01080020  RH  055%=      5-min Rain = 0
KSB1 180942Z 26006KT 11/02 A3011 RMK A01 T01090020  RH  054%=      5-min Rain = 0
KSB1 180943Z 26005KT 11/02 A3011 RMK A01 T01110021  RH  054%=      5-min Rain = 0
KSB1 180944Z 26006KT 11/02 A3011 RMK A01 T01110020  RH  053%=      5-min Rain = 0
KSB1 180945Z 26006KT 11/02 A3011 RMK A01 T01110020  RH  053%=      5-min Rain = 0
KSB1 180946Z 27006KT 11/02 A3011 RMK A01 T01100019  RH  053%=      5-min Rain = 0
KSB1 180947Z 27007KT 11/02 A3011 RMK A01 T01090019  RH  054%=      5-min Rain = 0
KSB1 180948Z 25007KT 11/02 A3011 RMK A01 T01100019  RH  054%=      5-min Rain = 0
KSB1 180949Z 25007KT 11/02 A3011 RMK A01 T01120020  RH  053%=      5-min Rain = 0
KSB1 180950Z 26006KT 11/02 A3011 RMK A01 T01130020  RH  052%=      5-min Rain = 0
KSB1 180951Z 27006KT 11/02 A3011 RMK A01 T01130019  RH  052%=      5-min Rain = 0
KSB1 180952Z 28006KT 11/02 A3011 RMK A01 T01110019  RH  053%=      5-min Rain = 0
KSB1 180953Z 28006KT 11/02 A3011 RMK A01 T01110019  RH  053%=      5-min Rain = 0
KSB1 180954Z 28006KT 11/02 A3011 RMK A01 T01110019  RH  053%=      5-min Rain = 0
KSB1 180955Z 28007KT 11/02 A3011 RMK A01 T01110019  RH  053%=      5-min Rain = 0
KSB1 180956Z 28007KT 11/02 A3011 RMK A01 T01120019  RH  053%=      5-min Rain = 0
KSB1 180957Z 28007KT 11/02 A3011 RMK A01 T01130020  RH  052%=      5-min Rain = 0
KSB1 180958Z 28008KT 11/02 A3011 RMK A01 T01140020  RH  052%=      5-min Rain = 0
KSB1 180959Z 28007KT 11/02 A3011 RMK A01 T01140020  RH  052%=      5-min Rain = 0
KSB1 181000Z 29006KT 11/02 A3011 RMK A01 T01130019  RH  053%=      5-min Rain = 0
KSB1 181001Z 29006KT 11/02 A3011 RMK A01 T01130020  RH  053%=      5-min Rain = 0
KSB1 181002Z 28006KT 11/02 A3011 RMK A01 T01130020  RH  053%=      5-min Rain = 0
KSB1 181003Z 27005KT 11/02 A3011 RMK A01 T01140019  RH  052%=      5-min Rain = 0
KSB1 181004Z 27006KT 12/02 A3011 RMK A01 T01160020  RH  052%=      5-min Rain = 0
KSB1 181005Z 28006KT 12/02 A3012 RMK A01 T01170020  RH  051%=      5-min Rain = 0
KSB1 181006Z 29008KT 12/02 A3012 RMK A01 T01170020  RH  051%=      5-min Rain = 0
KSB1 181007Z 29007KT 12/02 A3012 RMK A01 T01160020  RH  051%=      5-min Rain = 0
KSB1 181008Z 29006KT 12/02 A3012 RMK A01 T01160019  RH  051%=      5-min Rain = 0
KSB1 181009Z 29007KT 12/02 A3011 RMK A01 T01170019  RH  051%=      5-min Rain = 0
KSB1 181010Z 28007KT 12/02 A3011 RMK A01 T01170018  RH  051%=      5-min Rain = 0
KSB1 181011Z 28007KT 12/02 A3011 RMK A01 T01170018  RH  051%=      5-min Rain = 0
KSB1 181012Z 28007KT 12/02 A3011 RMK A01 T01190018  RH  050%=      5-min Rain = 0
KSB1 181013Z 28006KT 12/02 A3011 RMK A01 T01180017  RH  050%=      5-min Rain = 0
KSB1 181014Z 27007KT 12/02 A3011 RMK A01 T01150017  RH  051%=      5-min Rain = 0
KSB1 181015Z 27007KT 11/02 A3011 RMK A01 T01140017  RH  051%=      5-min Rain = 0
KSB1 181016Z 26008KT 11/02 A3011 RMK A01 T01140017  RH  051%=      5-min Rain = 0
KSB1 181017Z 27009KT 12/02 A3011 RMK A01 T01160017  RH  050%=      5-min Rain = 0
KSB1 181018Z 26009KT 12/02 A3011 RMK A01 T01160016  RH  050%=      5-min Rain = 0
KSB1 181019Z 25008KT 12/02 A3011 RMK A01 T01150016  RH  050%=      5-min Rain = 0
KSB1 181020Z 24009KT 11/02 A3011 RMK A01 T01130015  RH  051%=      5-min Rain = 0
KSB1 181021Z 24007KT 12/02 A301 RMK A01 T01190016  RH  049%=      5-min Rain = 0
KSB1 181022Z 26007KT 12/01 A301 RMK A01 T01170013  RH  049%=      5-min Rain = 0
KSB1 181023Z 26007KT 11/01 A301 RMK A01 T01100012  RH  051%=      5-min Rain = 0
KSB1 181024Z 27007KT 10/01 A301 RMK A01 T01030011  RH  053%=      5-min Rain = 0
KSB1 181025Z 27008KT 10/01 A3011 RMK A01 T00970011  RH  055%=      5-min Rain = 0
KSB1 181026Z 26009KT 09/01 A301 RMK A01 T00940013  RH  057%=      5-min Rain = 0
KSB1 181027Z 26007KT 10/01 A3011 RMK A01 T00960014  RH  057%=      5-min Rain = 0
KSB1 181028Z 26006KT 10/01 A301 RMK A01 T00950013  RH  056%=      5-min Rain = 0
KSB1 181029Z 28006KT 10/01 A301 RMK A01 T00960014  RH  057%=      5-min Rain = 0
KSB1 181030Z 28007KT 10/02 A301 RMK A01 T00990015  RH  056%=      5-min Rain = 0
KSB1 181031Z 28007KT 10/02 A301 RMK A01 T01040016  RH  054%=      5-min Rain = 0
KSB1 181032Z 26007KT 11/02 A301 RMK A01 T01060015  RH  053%=      5-min Rain = 0
KSB1 181033Z 24006KT 10/01 A301 RMK A01 T01030013  RH  054%=      5-min Rain = 0
KSB1 181034Z 25005KT 10/01 A301 RMK A01 T00980012  RH  055%=      5-min Rain = 0
KSB1 181035Z 24005KT 10/01 A301 RMK A01 T00960013  RH  056%=      5-min Rain = 0
KSB1 181036Z 24005KT 10/01 A301 RMK A01 T00960013  RH  056%=      5-min Rain = 0
KSB1 181037Z 23005KT 10/01 A3009 RMK A01 T00950013  RH  057%=      5-min Rain = 0
KSB1 181038Z 22006KT 10/01 A3009 RMK A01 T00950014  RH  057%=      5-min Rain = 0
KSB1 181039Z 21008KT 09/01 A3009 RMK A01 T00940013  RH  057%=      5-min Rain = 0
KSB1 181040Z 21007KT 09/01 A3009 RMK A01 T00920013  RH  058%=      5-min Rain = 0
KSB1 181041Z 22006KT 09/01 A3009 RMK A01 T00900012  RH  058%=      5-min Rain = 0
KSB1 181042Z 22007KT 09/01 A3009 RMK A01 T00880012  RH  059%=      5-min Rain = 0
KSB1 181043Z 21007KT 09/01 A3009 RMK A01 T00870013  RH  060%=      5-min Rain = 0
KSB1 181044Z 22004KT 09/02 A3009 RMK A01 T00910016  RH  059%=      5-min Rain = 0
KSB1 181045Z 21005KT 09/02 A3009 RMK A01 T00940016  RH  058%=      5-min Rain = 0
KSB1 181046Z 23006KT 10/02 A3009 RMK A01 T00970016  RH  057%=      5-min Rain = 0
KSB1 181047Z 25007KT 10/01 A3009 RMK A01 T00960014  RH  057%=      5-min Rain = 0
KSB1 181048Z 24006KT 10/02 A3009 RMK A01 T00950015  RH  057%=      5-min Rain = 0
KSB1 181049Z 24006KT 10/01 A3009 RMK A01 T00950014  RH  057%=      5-min Rain = 0
KSB1 181050Z 24006KT 10/01 A3009 RMK A01 T00950014  RH  057%=      5-min Rain = 0
KSB1 181051Z 24007KT 10/02 A3009 RMK A01 T00960015  RH  057%=      5-min Rain = 0
KSB1 181052Z 23007KT 10/01 A3009 RMK A01 T00960014  RH  057%=      5-min Rain = 0
KSB1 181053Z 24006KT 10/01 A3009 RMK A01 T00960014  RH  057%=      5-min Rain = 0
KSB1 181054Z 23005KT 10/01 A3009 RMK A01 T00960014  RH  057%=      5-min Rain = 0
KSB1 181055Z 22005KT 10/02 A3009 RMK A01 T00980015  RH  056%=      5-min Rain = 0
KSB1 181056Z 21006KT 10/01 A3009 RMK A01 T00980014  RH  056%=      5-min Rain = 0
KSB1 181057Z 21005KT 10/01 A3008 RMK A01 T00980014  RH  056%=      5-min Rain = 0
KSB1 181058Z 21005KT 10/01 A3008 RMK A01 T00980014  RH  056%=      5-min Rain = 0
KSB1 181059Z 21005KT 10/01 A3008 RMK A01 T00980014  RH  056%=      5-min Rain = 0
KSB1 181100Z 21005KT 10/01 A3008 RMK A01 T00980014  RH  056%=      5-min Rain = 0
KSB1 181101Z 21006KT 10/01 A3008 RMK A01 T00980014  RH  056%=      5-min Rain = 0
KSB1 181102Z 22005KT 10/01 A3008 RMK A01 T00970013  RH  056%=      5-min Rain = 0
KSB1 181103Z 24005KT 10/01 A3008 RMK A01 T00950013  RH  056%=      5-min Rain = 0
KSB1 181104Z 27006KT 09/01 A3009 RMK A01 T00940013  RH  057%=      5-min Rain = 0
KSB1 181105Z 25005KT 09/01 A3008 RMK A01 T00930014  RH  058%=      5-min Rain = 0
KSB1 181106Z 25005KT 09/02 A3008 RMK A01 T00940015  RH  058%=      5-min Rain = 0
KSB1 181107Z 25006KT 10/02 A3008 RMK A01 T00950015  RH  057%=      5-min Rain = 0
KSB1 181108Z 24005KT 10/02 A3008 RMK A01 T00960015  RH  057%=      5-min Rain = 0
KSB1 181109Z 25005KT 10/02 A3008 RMK A01 T00990016  RH  057%=      5-min Rain = 0
KSB1 181110Z 24005KT 10/02 A3008 RMK A01 T01010017  RH  056%=      5-min Rain = 0
KSB1 181111Z 24005KT 10/02 A3008 RMK A01 T01000015  RH  055%=      5-min Rain = 0
KSB1 181112Z 25005KT 10/01 A3008 RMK A01 T00960014  RH  056%=      5-min Rain = 0
KSB1 181113Z 25005KT 09/01 A3008 RMK A01 T00940014  RH  057%=      5-min Rain = 0
KSB1 181114Z 24005KT 09/01 A3008 RMK A01 T00930014  RH  058%=      5-min Rain = 0
KSB1 181115Z 23006KT 09/02 A3008 RMK A01 T00920015  RH  058%=      5-min Rain = 0
KSB1 181116Z 23005KT 09/02 A3008 RMK A01 T00920015  RH  059%=      5-min Rain = 0
KSB1 181117Z 24005KT 09/02 A3008 RMK A01 T00910015  RH  059%=      5-min Rain = 0
KSB1 181118Z 23005KT 09/02 A3008 RMK A01 T00900015  RH  059%=      5-min Rain = 0
KSB1 181119Z 23005KT 09/02 A3008 RMK A01 T00900015  RH  059%=      5-min Rain = 0
KSB1 181120Z 24005KT 09/02 A3008 RMK A01 T00910015  RH  059%=      5-min Rain = 0
KSB1 181121Z 24005KT 09/02 A3008 RMK A01 T00920016  RH  059%=      5-min Rain = 0
KSB1 181122Z 23005KT 09/02 A3008 RMK A01 T00920015  RH  059%=      5-min Rain = 0
KSB1 181123Z 25005KT 09/02 A3008 RMK A01 T00930016  RH  059%=      5-min Rain = 0
KSB1 181124Z 27007KT 09/02 A3008 RMK A01 T00930016  RH  058%=      5-min Rain = 0
KSB1 181125Z 26007KT 09/02 A3008 RMK A01 T00930016  RH  059%=      5-min Rain = 0
KSB1 181126Z 27007KT 10/02 A3008 RMK A01 T00960017  RH  058%=      5-min Rain = 0
KSB1 181127Z 29006KT 10/02 A3008 RMK A01 T00970016  RH  057%=      5-min Rain = 0
KSB1 181128Z 30006KT 10/02 A3008 RMK A01 T00970016  RH  057%=      5-min Rain = 0
KSB1 181129Z 27004KT 10/02 A3008 RMK A01 T00970016  RH  057%=      5-min Rain = 0
KSB1 181130Z 27003KT 10/02 A3008 RMK A01 T00960016  RH  057%=      5-min Rain = 0
KSB1 181131Z 27004KT 10/02 A3008 RMK A01 T00970016  RH  057%=      5-min Rain = 0
KSB1 181132Z 26006KT 10/02 A3008 RMK A01 T00990016  RH  056%=      5-min Rain = 0
KSB1 181133Z 27005KT 10/02 A3008 RMK A01 T00990015  RH  056%=      5-min Rain = 0
KSB1 181134Z 26004KT 10/02 A3008 RMK A01 T00980015  RH  056%=      5-min Rain = 0
KSB1 181135Z 26005KT 10/02 A3008 RMK A01 T00980015  RH  056%=      5-min Rain = 0
KSB1 181136Z 26004KT 10/02 A3008 RMK A01 T00960015  RH  057%=      5-min Rain = 0
KSB1 181137Z 27006KT 09/02 A3008 RMK A01 T00940015  RH  057%=      5-min Rain = 0
KSB1 181138Z 27005KT 09/02 A3008 RMK A01 T00940015  RH  058%=      5-min Rain = 0
KSB1 181139Z 27005KT 09/02 A3008 RMK A01 T00940015  RH  057%=      5-min Rain = 0
KSB1 181140Z 26004KT 10/02 A3008 RMK A01 T00950015  RH  057%=      5-min Rain = 0
KSB1 181141Z 25004KT 10/02 A3007 RMK A01 T00960015  RH  057%=      5-min Rain = 0
KSB1 181142Z 26004KT 10/02 A3007 RMK A01 T00960015  RH  057%=      5-min Rain = 0
KSB1 181143Z 28003KT 10/02 A3007 RMK A01 T00970015  RH  056%=      5-min Rain = 0
KSB1 181144Z 26003KT 10/02 A3007 RMK A01 T01000015  RH  055%=      5-min Rain = 0
KSB1 181145Z 29003KT 10/02 A3007 RMK A01 T01030015  RH  054%=      5-min Rain = 0
KSB1 181146Z 25005KT 10/01 A3007 RMK A01 T01030013  RH  054%=      5-min Rain = 0
KSB1 181147Z 25005KT 10/01 A3007 RMK A01 T00960008  RH  054%=      5-min Rain = 0
KSB1 181148Z 27005KT 09/01 A3007 RMK A01 T00910008  RH  056%=      5-min Rain = 0
KSB1 181149Z 25003KT 09/01 A3007 RMK A01 T00910011  RH  058%=      5-min Rain = 0
KSB1 181150Z 27003KT 09/01 A3007 RMK A01 T00940013  RH  057%=      5-min Rain = 0
KSB1 181151Z 26002KT 10/01 A3007 RMK A01 T00960014  RH  057%=      5-min Rain = 0
KSB1 181152Z 26002KT 10/02 A3007 RMK A01 T01000015  RH  056%=      5-min Rain = 0
KSB1 181153Z 30003KT 10/01 A3006 RMK A01 T01020014  RH  054%=      5-min Rain = 0
KSB1 181154Z 26002KT 11/01 A3006 RMK A01 T01050013  RH  053%=      5-min Rain = 0
KSB1 181155Z 23004KT 11/01 A3006 RMK A01 T01070012  RH  052%=      5-min Rain = 0
KSB1 181156Z 23003KT 10/01 A3007 RMK A01 T00990007  RH  053%=      5-min Rain = 0
KSB1 181157Z 24004KT 09/01 A3007 RMK A01 T00920007  RH  055%=      5-min Rain = 0
KSB1 181158Z 25003KT 09/01 A3007 RMK A01 T00900010  RH  057%=      5-min Rain = 0
KSB1 181159Z 26002KT 09/01 A3007 RMK A01 T00930014  RH  058%=      5-min Rain = 0
KSB1 181200Z 26002KT 10/01 A3007 RMK A01 T00960014  RH  057%=      5-min Rain = 0
KSB1 181201Z 25003KT 10/01 A3007 RMK A01 T00960013  RH  056%=      5-min Rain = 0
KSB1 181202Z 25004KT 10/01 A3007 RMK A01 T00960013  RH  056%=      5-min Rain = 0
KSB1 181203Z 26005KT 10/01 A3007 RMK A01 T00960012  RH  056%=      5-min Rain = 0
KSB1 181204Z 25003KT 10/01 A3007 RMK A01 T00960013  RH  056%=      5-min Rain = 0
KSB1 181205Z 29004KT 10/01 A3007 RMK A01 T00960012  RH  056%=      5-min Rain = 0
KSB1 181206Z 28002KT 10/01 A3007 RMK A01 T00960012  RH  056%=      5-min Rain = 0
KSB1 181207Z 28002KT 10/01 A3007 RMK A01 T01010013  RH  054%=      5-min Rain = 0
KSB1 181208Z 32005KT 10/01 A3007 RMK A01 T01030012  RH  053%=      5-min Rain = 0
KSB1 181209Z 33006KT 10/01 A3007 RMK A01 T01040009  RH  052%=      5-min Rain = 0
KSB1 181210Z 31008KT 10/01 A3007 RMK A01 T01030009  RH  052%=      5-min Rain = 0
KSB1 181211Z 29007KT 10/01 A3007 RMK A01 T01020008  RH  052%=      5-min Rain = 0
KSB1 181212Z 27005KT 10/01 A3007 RMK A01 T01010008  RH  052%=      5-min Rain = 0
KSB1 181213Z 28005KT 10/01 A3007 RMK A01 T01000010  RH  053%=      5-min Rain = 0
KSB1 181214Z 30005KT 10/01 A3007 RMK A01 T00990011  RH  054%=      5-min Rain = 0
KSB1 181215Z 30005KT 10/01 A3007 RMK A01 T00990011  RH  054%=      5-min Rain = 0
KSB1 181216Z 29006KT 10/01 A3007 RMK A01 T00990011  RH  054%=      5-min Rain = 0
KSB1 181217Z 28004KT 10/01 A3007 RMK A01 T00990010  RH  054%=      5-min Rain = 0
KSB1 181218Z 29004KT 10/01 A3007 RMK A01 T00990010  RH  054%=      5-min Rain = 0
KSB1 181219Z 30004KT 10/01 A3007 RMK A01 T01000011  RH  054%=      5-min Rain = 0
KSB1 181220Z 32004KT 10/01 A3007 RMK A01 T01020010  RH  053%=      5-min Rain = 0
KSB1 181221Z 33004KT 10/01 A3006 RMK A01 T01040009  RH  051%=      5-min Rain = 0
KSB1 181222Z 33004KT 11/01 A3006 RMK A01 T01060008  RH  051%=      5-min Rain = 0
KSB1 181223Z 33004KT 11/01 A3007 RMK A01 T01070008  RH  050%=      5-min Rain = 0
KSB1 181224Z 33006KT 11/01 A3007 RMK A01 T01070007  RH  050%=      5-min Rain = 0
KSB1 181225Z 32006KT 11/01 A3007 RMK A01 T01060007  RH  050%=      5-min Rain = 0
KSB1 181226Z 33006KT 10/01 A3007 RMK A01 T01030007  RH  051%=      5-min Rain = 0
KSB1 181227Z 33006KT 10/01 A3007 RMK A01 T01010007  RH  052%=      5-min Rain = 0
KSB1 181228Z 32006KT 10/01 A3006 RMK A01 T01010007  RH  052%=      5-min Rain = 0
KSB1 181229Z 32005KT 10/01 A3006 RMK A01 T01000007  RH  052%=      5-min Rain = 0
KSB1 181230Z 32006KT 10/01 A3006 RMK A01 T01000007  RH  052%=      5-min Rain = 0
KSB1 181231Z 31006KT 10/01 A3006 RMK A01 T01010007  RH  052%=      5-min Rain = 0
KSB1 181232Z 32006KT 11/01 A3006 RMK A01 T01050008  RH  051%=      5-min Rain = 0
KSB1 181233Z 33006KT 11/01 A3006 RMK A01 T01050008  RH  051%=      5-min Rain = 0
KSB1 181234Z 33006KT 10/01 A3006 RMK A01 T01040008  RH  051%=      5-min Rain = 0
KSB1 181235Z 33006KT 10/01 A3006 RMK A01 T01030008  RH  052%=      5-min Rain = 0
KSB1 181236Z 32007KT 10/01 A3006 RMK A01 T01020008  RH  052%=      5-min Rain = 0
KSB1 181237Z 32005KT 10/01 A3006 RMK A01 T01020008  RH  052%=      5-min Rain = 0
KSB1 181238Z 31008KT 10/01 A3006 RMK A01 T01040008  RH  051%=      5-min Rain = 0
KSB1 181239Z 31006KT 11/01 A3006 RMK A01 T01050008  RH  051%=      5-min Rain = 0
KSB1 181240Z 31007KT 11/01 A3006 RMK A01 T01050008  RH  051%=      5-min Rain = 0
KSB1 181241Z 31007KT 11/01 A3006 RMK A01 T01050008  RH  051%=      5-min Rain = 0
KSB1 181242Z 32007KT 11/01 A3006 RMK A01 T01050008  RH  051%=      5-min Rain = 0
KSB1 181243Z 32007KT 10/01 A3006 RMK A01 T01040007  RH  051%=      5-min Rain = 0
KSB1 181244Z 33007KT 10/01 A3006 RMK A01 T01020007  RH  052%=      5-min Rain = 0
KSB1 181245Z 32007KT 10/01 A3006 RMK A01 T01000007  RH  053%=      5-min Rain = 0
KSB1 181246Z 32007KT 10/01 A3006 RMK A01 T00990007  RH  053%=      5-min Rain = 0
KSB1 181247Z 32008KT 10/01 A3006 RMK A01 T00990007  RH  053%=      5-min Rain = 0
KSB1 181248Z 33007KT 10/01 A3006 RMK A01 T00990007  RH  053%=      5-min Rain = 0
KSB1 181249Z 33006KT 10/01 A3006 RMK A01 T00980007  RH  053%=      5-min Rain = 0
KSB1 181250Z 32006KT 10/01 A3006 RMK A01 T00980007  RH  053%=      5-min Rain = 0
KSB1 181251Z 32005KT 10/01 A3006 RMK A01 T00980007  RH  053%=      5-min Rain = 0
KSB1 181252Z 32005KT 10/01 A3006 RMK A01 T00980007  RH  053%=      5-min Rain = 0
KSB1 181253Z 32005KT 10/01 A3006 RMK A01 T00990007  RH  053%=      5-min Rain = 0
KSB1 181254Z 32005KT 10/01 A3006 RMK A01 T01000007  RH  052%=      5-min Rain = 0
KSB1 181255Z 31005KT 10/01 A3006 RMK A01 T01000007  RH  053%=      5-min Rain = 0
KSB1 181256Z 31005KT 10/01 A3006 RMK A01 T01000007  RH  052%=      5-min Rain = 0
KSB1 181257Z 32005KT 10/01 A3006 RMK A01 T01010007  RH  052%=      5-min Rain = 0
KSB1 181258Z 31006KT 10/01 A3006 RMK A01 T01020007  RH  052%=      5-min Rain = 0
KSB1 181259Z 32006KT 10/01 A3006 RMK A01 T01020007  RH  052%=      5-min Rain = 0
KSB1 181300Z 31006KT 10/01 A3006 RMK A01 T01020007  RH  052%=      5-min Rain = 0
KSB1 181301Z 31004KT 10/00 A3006 RMK A01 T00980004  RH  052%=      5-min Rain = 0
KSB1 181302Z 27002KT 09/M01 A3006 RMK A01 T00871005  RH  052%=      5-min Rain = 0
KSB1 181303Z 26003KT 08/M01 A3006 RMK A01 T00751009  RH  055%=      5-min Rain = 0
KSB1 181304Z 30004KT 07/M01 A3006 RMK A01 T00691007  RH  059%=      5-min Rain = 0
KSB1 181305Z 30004KT 07/M00 A3006 RMK A01 T00671001  RH  062%=      5-min Rain = 0
KSB1 181306Z 29004KT 07/00 A3006 RMK A01 T006900-0  RH  061%=      5-min Rain = 0
KSB1 181307Z 28004KT 07/00 A3006 RMK A01 T00700002  RH  062%=      5-min Rain = 0
KSB1 181308Z 28004KT 08/01 A3006 RMK A01 T00750005  RH  061%=      5-min Rain = 0
KSB1 181309Z 28004KT 08/00 A3006 RMK A01 T00780004  RH  059%=      5-min Rain = 0
KSB1 181310Z 28005KT 08/01 A3006 RMK A01 T00820006  RH  059%=      5-min Rain = 0
KSB1 181311Z 28006KT 09/01 A3006 RMK A01 T00860006  RH  057%=      5-min Rain = 0
KSB1 181312Z 27006KT 09/01 A3006 RMK A01 T00870006  RH  056%=      5-min Rain = 0
KSB1 181313Z 28007KT 09/01 A3006 RMK A01 T00880005  RH  056%=      5-min Rain = 0
KSB1 181314Z 28007KT 09/01 A3006 RMK A01 T00890006  RH  056%=      5-min Rain = 0
KSB1 181315Z 27006KT 09/01 A3006 RMK A01 T00900006  RH  056%=      5-min Rain = 0
KSB1 181316Z 26008KT 09/01 A3005 RMK A01 T00900005  RH  055%=      5-min Rain = 0
KSB1 181317Z 25008KT 09/01 A3005 RMK A01 T00900005  RH  055%=      5-min Rain = 0
KSB1 181318Z 26007KT 09/00 A3005 RMK A01 T00860003  RH  056%=      5-min Rain = 0
KSB1 181319Z 26007KT 08/00 A3006 RMK A01 T00800000  RH  057%=      5-min Rain = 0
KSB1 181320Z 26007KT 07/M00 A3006 RMK A01 T00741001  RH  059%=      5-min Rain = 0
KSB1 181321Z 27006KT 07/00 A3006 RMK A01 T007000-0  RH  061%=      5-min Rain = 0
KSB1 181322Z 26006KT 07/00 A3006 RMK A01 T006800-0  RH  062%=      5-min Rain = 0
KSB1 181323Z 26007KT 07/00 A3006 RMK A01 T006500-0  RH  063%=      5-min Rain = 0
KSB1 181324Z 27008KT 06/00 A3006 RMK A01 T00640001  RH  064%=      5-min Rain = 0
KSB1 181325Z 26009KT 07/00 A3006 RMK A01 T00670003  RH  064%=      5-min Rain = 0
KSB1 181326Z 25009KT 07/00 A3006 RMK A01 T00720004  RH  062%=      5-min Rain = 0
KSB1 181327Z 26008KT 07/00 A3006 RMK A01 T00740004  RH  061%=      5-min Rain = 0
KSB1 181328Z 26007KT 08/00 A3006 RMK A01 T00750003  RH  061%=      5-min Rain = 0
KSB1 181329Z 27007KT 07/00 A3006 RMK A01 T00740003  RH  061%=      5-min Rain = 0
KSB1 181330Z 26006KT 08/00 A3006 RMK A01 T00750004  RH  061%=      5-min Rain = 0
KSB1 181331Z 26007KT 08/01 A3006 RMK A01 T00770005  RH  060%=      5-min Rain = 0
KSB1 181332Z 25008KT 08/01 A3006 RMK A01 T00800005  RH  059%=      5-min Rain = 0
KSB1 181333Z 26007KT 08/00 A3007 RMK A01 T00800004  RH  059%=      5-min Rain = 0
KSB1 181334Z 25007KT 08/00 A3007 RMK A01 T00790003  RH  059%=      5-min Rain = 0
KSB1 181335Z 26007KT 08/00 A3007 RMK A01 T00770003  RH  059%=      5-min Rain = 0
KSB1 181336Z 26006KT 08/00 A3007 RMK A01 T00770003  RH  060%=      5-min Rain = 0
KSB1 181337Z 29006KT 08/00 A3007 RMK A01 T00760003  RH  060%=      5-min Rain = 0
KSB1 181338Z 28006KT 08/00 A3007 RMK A01 T00770004  RH  060%=      5-min Rain = 0
KSB1 181339Z 27007KT 08/01 A3007 RMK A01 T00780005  RH  060%=      5-min Rain = 0
KSB1 181340Z 28005KT 08/01 A3007 RMK A01 T00800005  RH  059%=      5-min Rain = 0
KSB1 181341Z 27004KT 08/00 A3007 RMK A01 T00780003  RH  059%=      5-min Rain = 0
KSB1 181342Z 27004KT 08/00 A3007 RMK A01 T00760002  RH  060%=      5-min Rain = 0
KSB1 181343Z 27004KT 08/00 A3007 RMK A01 T00750003  RH  060%=      5-min Rain = 0
KSB1 181344Z 27005KT 07/00 A3007 RMK A01 T00740003  RH  061%=      5-min Rain = 0
KSB1 181345Z 26005KT 07/00 A3007 RMK A01 T00730003  RH  061%=      5-min Rain = 0
KSB1 181346Z 25006KT 07/00 A3007 RMK A01 T00720003  RH  061%=      5-min Rain = 0
KSB1 181347Z 25006KT 07/00 A3006 RMK A01 T00720003  RH  062%=      5-min Rain = 0
KSB1 181348Z 25007KT 07/00 A3006 RMK A01 T00720004  RH  062%=      5-min Rain = 0
KSB1 181349Z 24007KT 07/00 A3006 RMK A01 T00730004  RH  062%=      5-min Rain = 0
KSB1 181350Z 24006KT 08/00 A3006 RMK A01 T00750004  RH  061%=      5-min Rain = 0
KSB1 181351Z 25006KT 08/00 A3006 RMK A01 T00750004  RH  061%=      5-min Rain = 0
KSB1 181352Z 25006KT 08/00 A3006 RMK A01 T00750004  RH  061%=      5-min Rain = 0
KSB1 181353Z 24006KT 08/00 A3006 RMK A01 T00750004  RH  061%=      5-min Rain = 0
KSB1 181354Z 22006KT 08/00 A3006 RMK A01 T00750004  RH  061%=      5-min Rain = 0
KSB1 181355Z 22005KT 07/00 A3006 RMK A01 T00740004  RH  061%=      5-min Rain = 0
KSB1 181356Z 24006KT 07/00 A3006 RMK A01 T00740004  RH  061%=      5-min Rain = 0
KSB1 181357Z 24006KT 07/00 A3006 RMK A01 T00740004  RH  061%=      5-min Rain = 0
KSB1 181358Z 23006KT 07/00 A3006 RMK A01 T00740004  RH  061%=      5-min Rain = 0
KSB1 181359Z 24006KT 08/01 A3006 RMK A01 T00760005  RH  061%=      5-min Rain = 0
KSB1 181400Z 23007KT 08/01 A3006 RMK A01 T00770005  RH  060%=      5-min Rain = 0
KSB1 181401Z 23007KT 08/00 A3006 RMK A01 T00770004  RH  060%=      5-min Rain = 0
KSB1 181402Z 23006KT 08/00 A3006 RMK A01 T00780004  RH  060%=      5-min Rain = 0
KSB1 181403Z 23006KT 08/00 A3006 RMK A01 T00780004  RH  060%=      5-min Rain = 0
KSB1 181404Z 23007KT 08/00 A3005 RMK A01 T00760002  RH  060%=      5-min Rain = 0
KSB1 181405Z 22006KT 07/00 A3005 RMK A01 T00720001  RH  060%=      5-min Rain = 0
KSB1 181406Z 23005KT 07/00 A3006 RMK A01 T006900-0  RH  061%=      5-min Rain = 0
KSB1 181407Z 22007KT 07/00 A3006 RMK A01 T00660000  RH  063%=      5-min Rain = 0
KSB1 181408Z 22008KT 06/00 A3006 RMK A01 T00640001  RH  064%=      5-min Rain = 0
KSB1 181409Z 23009KT 06/00 A3006 RMK A01 T00620001  RH  065%=      5-min Rain = 0
KSB1 181410Z 22009KT 06/00 A3006 RMK A01 T00620001  RH  065%=      5-min Rain = 0
KSB1 181411Z 23008KT 06/00 A3006 RMK A01 T00630002  RH  065%=      5-min Rain = 0
KSB1 181412Z 25006KT 06/00 A3006 RMK A01 T00630002  RH  065%=      5-min Rain = 0
KSB1 181413Z 25007KT 07/00 A3006 RMK A01 T00650004  RH  065%=      5-min Rain = 0
KSB1 181414Z 22009KT 08/01 A3006 RMK A01 T00750009  RH  063%=      5-min Rain = 0
KSB1 181415Z 22010KT 08/01 A3006 RMK A01 T00810008  RH  060%=      5-min Rain = 0
KSB1 181416Z 22009KT 08/01 A3006 RMK A01 T00810006  RH  059%=      5-min Rain = 0
KSB1 181417Z 22007KT 08/01 A3006 RMK A01 T00810005  RH  059%=      5-min Rain = 0
KSB1 181418Z 24007KT 08/00 A3006 RMK A01 T00790004  RH  059%=      5-min Rain = 0
KSB1 181419Z 23007KT 08/01 A3005 RMK A01 T00780005  RH  060%=      5-min Rain = 0
KSB1 181420Z 24007KT 08/01 A3006 RMK A01 T00800006  RH  060%=      5-min Rain = 0
KSB1 181421Z 28007KT 08/01 A3006 RMK A01 T00810005  RH  059%=      5-min Rain = 0
KSB1 181422Z 30008KT 08/01 A3006 RMK A01 T00810005  RH  059%=      5-min Rain = 0
KSB1 181423Z 29005KT 09/01 A3006 RMK A01 T00850007  RH  058%=      5-min Rain = 0
KSB1 181424Z 28005KT 09/01 A3006 RMK A01 T00900007  RH  056%=      5-min Rain = 0
KSB1 181425Z 25006KT 09/01 A3006 RMK A01 T00920007  RH  055%=      5-min Rain = 0
KSB1 181426Z 23005KT 09/01 A3006 RMK A01 T00920006  RH  055%=      5-min Rain = 0
KSB1 181427Z 23004KT 09/01 A3006 RMK A01 T00920007  RH  055%=      5-min Rain = 0
KSB1 181428Z 24005KT 09/01 A3006 RMK A01 T00930007  RH  055%=      5-min Rain = 0
KSB1 181429Z 26004KT 09/01 A3006 RMK A01 T00930007  RH  055%=      5-min Rain = 0
KSB1 181430Z 26004KT 09/01 A3006 RMK A01 T00930007  RH  055%=      5-min Rain = 0
KSB1 181431Z 26003KT 09/01 A3006 RMK A01 T00930007  RH  055%=      5-min Rain = 0
KSB1 181432Z 25003KT 09/01 A3007 RMK A01 T00940007  RH  055%=      5-min Rain = 0
KSB1 181433Z 29002KT 10/01 A3007 RMK A01 T00950007  RH  054%=      5-min Rain = 0
KSB1 181434Z 32002KT 10/01 A3007 RMK A01 T00970008  RH  054%=      5-min Rain = 0
KSB1 181435Z 35001KT 10/01 A3007 RMK A01 T00970008  RH  054%=      5-min Rain = 0
KSB1 181436Z 30002KT 10/01 A3007 RMK A01 T00980008  RH  053%=      5-min Rain = 0
KSB1 181437Z 28001KT 10/01 A3007 RMK A01 T00990008  RH  053%=      5-min Rain = 0
KSB1 181438Z 28001KT 10/01 A3007 RMK A01 T01000007  RH  052%=      5-min Rain = 0
KSB1 181439Z 26003KT 10/01 A3007 RMK A01 T01010008  RH  052%=      5-min Rain = 0
KSB1 181440Z 25003KT 10/01 A3007 RMK A01 T01020008  RH  052%=      5-min Rain = 0
KSB1 181441Z 26003KT 10/01 A3007 RMK A01 T01020008  RH  052%=      5-min Rain = 0
KSB1 181442Z 26001KT 10/01 A3007 RMK A01 T01030007  RH  051%=      5-min Rain = 0
KSB1 181443Z 24001KT 10/01 A3007 RMK A01 T01040008  RH  051%=      5-min Rain = 0
KSB1 181444Z 23002KT 11/01 A3007 RMK A01 T01050008  RH  051%=      5-min Rain = 0
KSB1 181445Z 22001KT 11/01 A3008 RMK A01 T01060008  RH  051%=      5-min Rain = 0
KSB1 181446Z 22000KT 11/01 A3008 RMK A01 T01070009  RH  050%=      5-min Rain = 0
KSB1 181447Z 34000KT 11/01 A3008 RMK A01 T01090009  RH  050%=      5-min Rain = 0
KSB1 181448Z 35002KT 11/01 A3008 RMK A01 T01100009  RH  050%=      5-min Rain = 0
KSB1 181449Z 00004KT 11/01 A3008 RMK A01 T01080007  RH  050%=      5-min Rain = 0
KSB1 181450Z 00005KT 10/00 A3008 RMK A01 T00990002  RH  051%=      5-min Rain = 0
KSB1 181451Z 01005KT 09/00 A3008 RMK A01 T00910002  RH  054%=      5-min Rain = 0
KSB1 181452Z 02005KT 09/00 A3008 RMK A01 T00870003  RH  055%=      5-min Rain = 0
KSB1 181453Z 04003KT 09/00 A3008 RMK A01 T00860004  RH  056%=      5-min Rain = 0
KSB1 181454Z 05003KT 09/00 A3008 RMK A01 T00870004  RH  056%=      5-min Rain = 0
KSB1 181455Z 03003KT 09/01 A3008 RMK A01 T00880005  RH  056%=      5-min Rain = 0
KSB1 181456Z 33005KT 09/01 A3008 RMK A01 T00900006  RH  055%=      5-min Rain = 0
KSB1 181457Z 32004KT 09/01 A3008 RMK A01 T00910006  RH  055%=      5-min Rain = 0
KSB1 181458Z 35004KT 09/01 A3008 RMK A01 T00910006  RH  055%=      5-min Rain = 0
KSB1 181459Z 35005KT 09/01 A3008 RMK A01 T00900005  RH  055%=      5-min Rain = 0
KSB1 181500Z 34005KT 09/01 A3008 RMK A01 T00910005  RH  055%=      5-min Rain = 0
KSB1 181501Z 35004KT 09/01 A3008 RMK A01 T00910006  RH  055%=      5-min Rain = 0
KSB1 181502Z 35003KT 09/01 A3008 RMK A01 T00920007  RH  055%=      5-min Rain = 0
KSB1 181503Z 34004KT 09/01 A3008 RMK A01 T00930007  RH  055%=      5-min Rain = 0
KSB1 181504Z 00003KT 09/01 A3008 RMK A01 T00940007  RH  054%=      5-min Rain = 0
KSB1 181505Z 04004KT 10/01 A3008 RMK A01 T00950006  RH  054%=      5-min Rain = 0
KSB1 181506Z 04004KT 10/01 A3008 RMK A01 T00950006  RH  054%=      5-min Rain = 0
KSB1 181507Z 04002KT 10/01 A3008 RMK A01 T00960006  RH  054%=      5-min Rain = 0
KSB1 181508Z 35002KT 10/01 A3009 RMK A01 T00960006  RH  053%=      5-min Rain = 0
KSB1 181509Z 34003KT 10/01 A3009 RMK A01 T00970007  RH  054%=      5-min Rain = 0
KSB1 181510Z 36002KT 10/01 A3009 RMK A01 T00980008  RH  054%=      5-min Rain = 0
KSB1 181511Z 01002KT 10/01 A3009 RMK A01 T00980007  RH  053%=      5-min Rain = 0
KSB1 181512Z 35003KT 10/01 A3009 RMK A01 T00990007  RH  053%=      5-min Rain = 0
KSB1 181513Z 35003KT 10/01 A3009 RMK A01 T01000008  RH  053%=      5-min Rain = 0
KSB1 181514Z 00002KT 10/01 A3009 RMK A01 T01000008  RH  053%=      5-min Rain = 0
KSB1 181515Z 02002KT 10/01 A3009 RMK A01 T01000008  RH  053%=      5-min Rain = 0
KSB1 181516Z 04002KT 10/01 A3009 RMK A01 T01010008  RH  052%=      5-min Rain = 0
KSB1 181517Z 03004KT 10/01 A3009 RMK A01 T01020009  RH  052%=      5-min Rain = 0
KSB1 181518Z 02004KT 10/01 A3008 RMK A01 T01030009  RH  052%=      5-min Rain = 0
KSB1 181519Z 01003KT 10/01 A3008 RMK A01 T01040009  RH  052%=      5-min Rain = 0
KSB1 181520Z 01002KT 11/01 A3008 RMK A01 T01050009  RH  052%=      5-min Rain = 0
KSB1 181521Z 04003KT 11/01 A3008 RMK A01 T01050008  RH  051%=      5-min Rain = 0
KSB1 181522Z 06003KT 11/01 A3008 RMK A01 T01070009  RH  051%=      5-min Rain = 0
KSB1 181523Z 05003KT 11/01 A3008 RMK A01 T01080007  RH  049%=      5-min Rain = 0
KSB1 181524Z 03002KT 11/01 A3008 RMK A01 T01100006  RH  049%=      5-min Rain = 0
KSB1 181525Z 04003KT 11/01 A3008 RMK A01 T01110005  RH  048%=      5-min Rain = 0
KSB1 181526Z 04003KT 11/01 A3008 RMK A01 T01120006  RH  048%=      5-min Rain = 0
KSB1 181527Z 04002KT 11/01 A3008 RMK A01 T01130006  RH  048%=      5-min Rain = 0
KSB1 181528Z 02002KT 11/01 A3009 RMK A01 T01140006  RH  047%=      5-min Rain = 0
KSB1 181529Z 35003KT 12/01 A3009 RMK A01 T01150007  RH  047%=      5-min Rain = 0
KSB1 181530Z 35003KT 12/01 A3009 RMK A01 T01160008  RH  048%=      5-min Rain = 0
KSB1 181531Z 36004KT 12/01 A3009 RMK A01 T01170009  RH  047%=      5-min Rain = 0
KSB1 181532Z 35003KT 12/01 A3009 RMK A01 T01190009  RH  047%=      5-min Rain = 0
KSB1 181533Z 35003KT 12/01 A3009 RMK A01 T01190008  RH  046%=      5-min Rain = 0
KSB1 181534Z 00003KT 12/01 A3009 RMK A01 T01190008  RH  046%=      5-min Rain = 0
KSB1 181535Z 01003KT 12/01 A3009 RMK A01 T01190008  RH  047%=      5-min Rain = 0
KSB1 181536Z 01003KT 12/01 A3009 RMK A01 T01200009  RH  046%=      5-min Rain = 0
KSB1 181537Z 00004KT 12/01 A3009 RMK A01 T01210008  RH  046%=      5-min Rain = 0
KSB1 181538Z 33003KT 12/01 A3009 RMK A01 T01210008  RH  046%=      5-min Rain = 0
KSB1 181539Z 32004KT 12/01 A3009 RMK A01 T01210009  RH  046%=      5-min Rain = 0
KSB1 181540Z 33002KT 12/01 A3009 RMK A01 T01220009  RH  046%=      5-min Rain = 0
KSB1 181541Z 00002KT 12/01 A3009 RMK A01 T01230009  RH  046%=      5-min Rain = 0
KSB1 181542Z 36002KT 12/01 A3009 RMK A01 T01240008  RH  045%=      5-min Rain = 0
KSB1 181543Z 00001KT 12/01 A3009 RMK A01 T01240007  RH  044%=      5-min Rain = 0
KSB1 181544Z 33001KT 13/01 A3009 RMK A01 T01250007  RH  044%=      5-min Rain = 0
KSB1 181545Z 33002KT 13/01 A3009 RMK A01 T01250007  RH  044%=      5-min Rain = 0
KSB1 181546Z 33003KT 13/01 A3009 RMK A01 T01250007  RH  044%=      5-min Rain = 0
KSB1 181547Z 34003KT 13/01 A3009 RMK A01 T01250008  RH  045%=      5-min Rain = 0
KSB1 181548Z 33002KT 13/01 A3009 RMK A01 T01260009  RH  045%=      5-min Rain = 0
KSB1 181549Z 32004KT 13/01 A3009 RMK A01 T01270009  RH  045%=      5-min Rain = 0
KSB1 181550Z 33004KT 13/01 A3009 RMK A01 T01270009  RH  044%=      5-min Rain = 0
KSB1 181551Z 34005KT 13/01 A3009 RMK A01 T01280009  RH  044%=      5-min Rain = 0
KSB1 181552Z 34005KT 13/01 A3009 RMK A01 T01280009  RH  044%=      5-min Rain = 0
KSB1 181553Z 33004KT 13/01 A3009 RMK A01 T01270009  RH  044%=      5-min Rain = 0
KSB1 181554Z 33005KT 13/01 A3009 RMK A01 T01280010  RH  045%=      5-min Rain = 0
KSB1 181555Z 34002KT 13/01 A3009 RMK A01 T01280008  RH  044%=      5-min Rain = 0
KSB1 181556Z 05001KT 13/01 A3009 RMK A01 T01280008  RH  044%=      5-min Rain = 0
KSB1 181557Z 35002KT 13/01 A3009 RMK A01 T01300009  RH  044%=      5-min Rain = 0
KSB1 181558Z 34002KT 13/01 A3009 RMK A01 T01320010  RH  043%=      5-min Rain = 0
KSB1 181559Z 34002KT 13/01 A3009 RMK A01 T01330010  RH  043%=      5-min Rain = 0
KSB1 181600Z 23003G10KT 13/01 A3008 RMK A01 T01340009  RH  042%=      5-min Rain = 0
KSB1 181601Z 23007KT 14/00 A3008 RMK A01 T01360001  RH  039%=      5-min Rain = 0
KSB1 181602Z 26004KT 14/00 A3008 RMK A01 T01380000  RH  039%=      5-min Rain = 0
KSB1 181603Z 23006KT 14/00 A3008 RMK A01 T01380003  RH  040%=      5-min Rain = 0
KSB1 181604Z 21005KT 14/01 A3009 RMK A01 T01390006  RH  040%=      5-min Rain = 0
KSB1 181605Z 21004KT 14/01 A3008 RMK A01 T01390007  RH  041%=      5-min Rain = 0
KSB1 181606Z 18004KT 14/01 A3008 RMK A01 T01390006  RH  040%=      5-min Rain = 0
KSB1 181607Z 17005KT 14/01 A3008 RMK A01 T01400008  RH  040%=      5-min Rain = 0
KSB1 181608Z 19004KT 14/01 A3008 RMK A01 T01420009  RH  040%=      5-min Rain = 0
KSB1 181609Z 23008KT 14/01 A3008 RMK A01 T01420007  RH  040%=      5-min Rain = 0
KSB1 181610Z 26006KT 14/01 A3009 RMK A01 T01410006  RH  040%=      5-min Rain = 0
KSB1 181611Z 21004KT 14/01 A3009 RMK A01 T01400006  RH  040%=      5-min Rain = 0
KSB1 181612Z 19005KT 14/00 A3009 RMK A01 T01390004  RH  040%=      5-min Rain = 0
KSB1 181613Z 21004KT 14/00 A3009 RMK A01 T01380003  RH  040%=      5-min Rain = 0
KSB1 181614Z 22004KT 14/00 A3009 RMK A01 T01390004  RH  040%=      5-min Rain = 0
KSB1 181615Z 26004KT 14/00 A3009 RMK A01 T01400004  RH  039%=      5-min Rain = 0
KSB1 181616Z 25007KT 14/00 A3009 RMK A01 T01420001  RH  038%=      5-min Rain = 0
KSB1 181617Z 28010G17KT 14/M01 A3009 RMK A01 T01431005  RH  036%=      5-min Rain = 0
KSB1 181618Z 27014KT 14/M01 A3009 RMK A01 T01431009  RH  035%=      5-min Rain = 0
KSB1 181619Z 27014KT 14/M01 A3009 RMK A01 T01431010  RH  035%=      5-min Rain = 0
KSB1 181620Z 27014KT 14/M01 A3008 RMK A01 T01441011  RH  035%=      5-min Rain = 0
KSB1 181621Z 27014KT 14/M01 A3009 RMK A01 T01441011  RH  035%=      5-min Rain = 0
KSB1 181622Z 26012KT 14/M01 A3009 RMK A01 T01441013  RH  034%=      5-min Rain = 0
KSB1 181623Z 27011KT 14/M01 A3009 RMK A01 T01441013  RH  034%=      5-min Rain = 0
KSB1 181624Z 26016G24KT 14/M01 A3009 RMK A01 T01441012  RH  034%=      5-min Rain = 0
KSB1 181625Z 27013KT 14/M01 A3009 RMK A01 T01441011  RH  034%=      5-min Rain = 0
KSB1 181626Z 27012G18KT 14/M01 A3009 RMK A01 T01431012  RH  035%=      5-min Rain = 0
KSB1 181627Z 26014KT 14/M01 A3009 RMK A01 T01431013  RH  034%=      5-min Rain = 0
KSB1 181628Z 27016KT 14/M01 A3009 RMK A01 T01421013  RH  034%=      5-min Rain = 0
KSB1 181629Z 26014G19KT 14/M01 A3009 RMK A01 T01421013  RH  034%=      5-min Rain = 0
KSB1 181630Z 26013KT 14/M01 A3009 RMK A01 T01411012  RH  035%=      5-min Rain = 0
KSB1 181631Z 27013KT 14/M01 A3009 RMK A01 T01411011  RH  035%=      5-min Rain = 0
KSB1 181632Z 26015KT 14/M01 A3009 RMK A01 T01401012  RH  035%=      5-min Rain = 0
KSB1 181633Z 28017KT 14/M01 A3009 RMK A01 T01401011  RH  035%=      5-min Rain = 0
KSB1 181634Z 28018G25KT 14/M01 A3009 RMK A01 T01391012  RH  035%=      5-min Rain = 0
KSB1 181635Z 26017KT 14/M01 A3009 RMK A01 T01391012  RH  035%=      5-min Rain = 0
KSB1 181636Z 25017KT 14/M01 A3009 RMK A01 T01381013  RH  035%=      5-min Rain = 0
KSB1 181637Z 27014KT 14/M01 A301 RMK A01 T01381013  RH  035%=      5-min Rain = 0
KSB1 181638Z 27014KT 14/M01 A301 RMK A01 T01381012  RH  036%=      5-min Rain = 0
KSB1 181639Z 27013KT 14/M01 A301 RMK A01 T01381011  RH  036%=      5-min Rain = 0
KSB1 181640Z 27010KT 14/M01 A301 RMK A01 T01381011  RH  036%=      5-min Rain = 0
KSB1 181641Z 28009KT 14/M01 A301 RMK A01 T01381011  RH  036%=      5-min Rain = 0
KSB1 181642Z 31008KT 14/M01 A301 RMK A01 T01371011  RH  036%=      5-min Rain = 0
KSB1 181643Z 29010G17KT 14/M01 A3011 RMK A01 T01371010  RH  036%=      5-min Rain = 0
KSB1 181644Z 29011G16KT 14/M01 A301 RMK A01 T01361010  RH  036%=      5-min Rain = 0
KSB1 181645Z 28011KT 14/M01 A301 RMK A01 T01361010  RH  037%=      5-min Rain = 0
KSB1 181646Z 28013KT 14/M01 A301 RMK A01 T01351010  RH  037%=      5-min Rain = 0
KSB1 181647Z 29010G15KT 13/M01 A301 RMK A01 T01341009  RH  037%=      5-min Rain = 0
KSB1 181648Z 28011KT 13/M01 A301 RMK A01 T01341010  RH  037%=      5-min Rain = 0
KSB1 181649Z 29010KT 14/M01 A301 RMK A01 T01351009  RH  037%=      5-min Rain = 0
KSB1 181650Z 28013KT 14/M01 A301 RMK A01 T01351009  RH  037%=      5-min Rain = 0
KSB1 181651Z 29011KT 14/M01 A301 RMK A01 T01361010  RH  037%=      5-min Rain = 0
KSB1 181652Z 27009KT 14/M01 A3011 RMK A01 T01371009  RH  037%=      5-min Rain = 0
KSB1 181653Z 28009KT 14/M01 A3011 RMK A01 T01391007  RH  037%=      5-min Rain = 0
KSB1 181654Z 32006KT 14/M01 A3011 RMK A01 T01411005  RH  037%=      5-min Rain = 0
KSB1 181655Z 33006KT 14/M00 A3011 RMK A01 T01421004  RH  037%=      5-min Rain = 0
KSB1 181656Z 34005KT 14/00 A3011 RMK A01 T014100-0  RH  038%=      5-min Rain = 0
KSB1 181657Z 30003KT 14/M00 A3011 RMK A01 T01391001  RH  038%=      5-min Rain = 0
KSB1 181658Z 34006KT 14/00 A3011 RMK A01 T014000-0  RH  038%=      5-min Rain = 0
KSB1 181659Z 32007KT 14/00 A3011 RMK A01 T01410002  RH  038%=      5-min Rain = 0
KSB1 181700Z 34005KT 14/00 A3011 RMK A01 T01400002  RH  039%=      5-min Rain = 0
KSB1 181701Z 34009KT 14/00 A301 RMK A01 T01400003  RH  039%=      5-min Rain = 0
KSB1 181702Z 33007KT 14/00 A301 RMK A01 T01400002  RH  039%=      5-min Rain = 0
KSB1 181703Z 32007KT 14/00 A301 RMK A01 T01400000  RH  038%=      5-min Rain = 0
KSB1 181704Z 34008KT 14/00 A301 RMK A01 T01410002  RH  038%=      5-min Rain = 0
KSB1 181705Z 33009KT 14/00 A301 RMK A01 T01410002  RH  038%=      5-min Rain = 0
KSB1 181706Z 31010KT 14/00 A301 RMK A01 T01410000  RH  038%=      5-min Rain = 0
KSB1 181707Z 30011KT 14/M00 A301 RMK A01 T01411003  RH  037%=      5-min Rain = 0
KSB1 181708Z 32007KT 14/M00 A301 RMK A01 T01431003  RH  037%=      5-min Rain = 0
KSB1 181709Z 32007KT 14/00 A301 RMK A01 T01430002  RH  038%=      5-min Rain = 0
KSB1 181710Z 32006KT 14/00 A301 RMK A01 T01440002  RH  038%=      5-min Rain = 0
KSB1 181711Z 27005KT 15/00 A301 RMK A01 T01450002  RH  038%=      5-min Rain = 0
KSB1 181712Z 26009KT 15/M00 A301 RMK A01 T01451003  RH  036%=      5-min Rain = 0
KSB1 181713Z 27010KT 15/M01 A301 RMK A01 T01471006  RH  035%=      5-min Rain = 0
KSB1 181714Z 31007G12KT 15/M00 A301 RMK A01 T01481004  RH  035%=      5-min Rain = 0
KSB1 181715Z 27009KT 15/M00 A301 RMK A01 T01471004  RH  035%=      5-min Rain = 0
KSB1 181716Z 26012KT 15/M01 A301 RMK A01 T01471007  RH  035%=      5-min Rain = 0
KSB1 181717Z 29012KT 15/M01 A301 RMK A01 T01481006  RH  035%=      5-min Rain = 0
KSB1 181718Z 28009KT 15/M01 A301 RMK A01 T01481007  RH  035%=      5-min Rain = 0
KSB1 181719Z 26013G18KT 15/M01 A301 RMK A01 T01471008  RH  035%=      5-min Rain = 0
KSB1 181720Z 27012KT 15/M01 A301 RMK A01 T01471007  RH  035%=      5-min Rain = 0
KSB1 181721Z 27011KT 15/M01 A301 RMK A01 T01481007  RH  035%=      5-min Rain = 0
KSB1 181722Z 27013KT 15/M01 A301 RMK A01 T01471007  RH  035%=      5-min Rain = 0
KSB1 181723Z 29010G15KT 15/M01 A301 RMK A01 T01471007  RH  035%=      5-min Rain = 0
KSB1 181724Z 28013KT 15/M01 A301 RMK A01 T01471007  RH  035%=      5-min Rain = 0
KSB1 181725Z 27015KT 15/M01 A3009 RMK A01 T01481007  RH  034%=      5-min Rain = 0
KSB1 181726Z 28014KT 15/M01 A3009 RMK A01 T01491007  RH  034%=      5-min Rain = 0
KSB1 181727Z 28014KT 15/M01 A3009 RMK A01 T01501007  RH  034%=      5-min Rain = 0
KSB1 181728Z 28016KT 15/M01 A3009 RMK A01 T01501007  RH  034%=      5-min Rain = 0
KSB1 181729Z 27014KT 15/M01 A3009 RMK A01 T01501008  RH  034%=      5-min Rain = 0
KSB1 181730Z 27011KT 15/M01 A3009 RMK A01 T01491008  RH  034%=      5-min Rain = 0
KSB1 181731Z 26013KT 15/M01 A3009 RMK A01 T01481008  RH  034%=      5-min Rain = 0
KSB1 181732Z 27014KT 15/M01 A3009 RMK A01 T01491009  RH  034%=      5-min Rain = 0
KSB1 181733Z 27011KT 15/M01 A3009 RMK A01 T01501008  RH  034%=      5-min Rain = 0
KSB1 181734Z 28012G18KT 15/M01 A3009 RMK A01 T01501008  RH  034%=      5-min Rain = 0
KSB1 181735Z 28013KT 15/M01 A3009 RMK A01 T01531007  RH  034%=      5-min Rain = 0
KSB1 181736Z 26016G21KT 15/M01 A3009 RMK A01 T01531008  RH  033%=      5-min Rain = 0
KSB1 181737Z 26015KT 15/M01 A3009 RMK A01 T01521009  RH  033%=      5-min Rain = 0
KSB1 181738Z 27014G20KT 15/M01 A3009 RMK A01 T01521008  RH  033%=      5-min Rain = 0
KSB1 181739Z 27014KT 15/M01 A3009 RMK A01 T01531008  RH  033%=      5-min Rain = 0
KSB1 181740Z 27016KT 16/M01 A3009 RMK A01 T01551007  RH  033%=      5-min Rain = 0
KSB1 181741Z 27017KT 16/M01 A3009 RMK A01 T01551007  RH  033%=      5-min Rain = 0
KSB1 181742Z 27015KT 16/M01 A3009 RMK A01 T01551007  RH  033%=      5-min Rain = 0
KSB1 181743Z 27013KT 16/M01 A3009 RMK A01 T01561006  RH  033%=      5-min Rain = 0
KSB1 181744Z 27010KT 16/M01 A3009 RMK A01 T01571006  RH  033%=      5-min Rain = 0
KSB1 181745Z 27012KT 16/M01 A3009 RMK A01 T01591005  RH  033%=      5-min Rain = 0
KSB1 181746Z 28017KT 16/M01 A3009 RMK A01 T01591007  RH  032%=      5-min Rain = 0
KSB1 181747Z 26018G23KT 16/M01 A3009 RMK A01 T01571008  RH  032%=      5-min Rain = 0
KSB1 181748Z 26019G25KT 16/M01 A3008 RMK A01 T01551008  RH  033%=      5-min Rain = 0
KSB1 181749Z 26015G20KT 15/M01 A3008 RMK A01 T01541009  RH  033%=      5-min Rain = 0
KSB1 181750Z 26017KT 16/M01 A3008 RMK A01 T01551008  RH  033%=      5-min Rain = 0
KSB1 181751Z 28018KT 16/M01 A3009 RMK A01 T01551008  RH  033%=      5-min Rain = 0
KSB1 181752Z 27017G22KT 16/M01 A3009 RMK A01 T01551007  RH  033%=      5-min Rain = 0
KSB1 181753Z 28015KT 16/M01 A3009 RMK A01 T01561007  RH  033%=      5-min Rain = 0
KSB1 181754Z 28015G21KT 16/M01 A3009 RMK A01 T01581005  RH  033%=      5-min Rain = 0
KSB1 181755Z 27016G22KT 16/M01 A3008 RMK A01 T01591006  RH  032%=      5-min Rain = 0
KSB1 181756Z 27014G19KT 16/M01 A3008 RMK A01 T01591006  RH  032%=      5-min Rain = 0
KSB1 181757Z 28014KT 16/M01 A3008 RMK A01 T01591007  RH  032%=      5-min Rain = 0
KSB1 181758Z 26014KT 16/M01 A3008 RMK A01 T01591006  RH  032%=      5-min Rain = 0
KSB1 181759Z 26014G21KT 16/M01 A3008 RMK A01 T01591007  RH  032%=      5-min Rain = 0
KSB1 181800Z 27018KT 16/M01 A3007 RMK A01 T01611006  RH  032%=      5-min Rain = 0
KSB1 181801Z 26022G27KT 16/M01 A3007 RMK A01 T01611007  RH  032%=      5-min Rain = 0
KSB1 181802Z 27018KT 16/M01 A3007 RMK A01 T01581008  RH  032%=      5-min Rain = 0
KSB1 181803Z 28014G20KT 16/M01 A3007 RMK A01 T01581006  RH  033%=      5-min Rain = 0
KSB1 181804Z 27018G26KT 16/M01 A3007 RMK A01 T01611006  RH  032%=      5-min Rain = 0
KSB1 181805Z 28018KT 16/M01 A3007 RMK A01 T01611006  RH  032%=      5-min Rain = 0
KSB1 181806Z 27016G23KT 16/M01 A3007 RMK A01 T01611007  RH  032%=      5-min Rain = 0
KSB1 181807Z 27019KT 16/M01 A3006 RMK A01 T01611007  RH  032%=      5-min Rain = 0
KSB1 181808Z 27018G24KT 16/M01 A3006 RMK A01 T01611007  RH  032%=      5-min Rain = 0
KSB1 181809Z 27014KT 16/M01 A3007 RMK A01 T01611006  RH  032%=      5-min Rain = 0
KSB1 181810Z 28019G24KT 16/M01 A3007 RMK A01 T01631006  RH  032%=      5-min Rain = 0
KSB1 181811Z 27019KT 16/M01 A3006 RMK A01 T01621007  RH  031%=      5-min Rain = 0
KSB1 181812Z 27019G24KT 16/M01 A3006 RMK A01 T01611007  RH  032%=      5-min Rain = 0
KSB1 181813Z 27017G22KT 16/M01 A3006 RMK A01 T01631006  RH  032%=      5-min Rain = 0
KSB1 181814Z 27016KT 16/M01 A3006 RMK A01 T01641006  RH  031%=      5-min Rain = 0
KSB1 181815Z 27015KT 17/M01 A3006 RMK A01 T01651005  RH  031%=      5-min Rain = 0
KSB1 181816Z 27020G32KT 17/M01 A3006 RMK A01 T01651005  RH  031%=      5-min Rain = 0
KSB1 181817Z 26020G30KT 16/M01 A3005 RMK A01 T01631007  RH  031%=      5-min Rain = 0
KSB1 181818Z 26016G21KT 16/M01 A3005 RMK A01 T01611006  RH  032%=      5-min Rain = 0
KSB1 181819Z 27015KT 16/M01 A3005 RMK A01 T01621005  RH  032%=      5-min Rain = 0
KSB1 181820Z 27020KT 16/M01 A3005 RMK A01 T01641006  RH  031%=      5-min Rain = 0
KSB1 181821Z 27020G28KT 16/M01 A3005 RMK A01 T01621007  RH  032%=      5-min Rain = 0
KSB1 181822Z 27019KT 16/M01 A3005 RMK A01 T01611006  RH  032%=      5-min Rain = 0
KSB1 181823Z 26017G22KT 16/M01 A3004 RMK A01 T01591008  RH  032%=      5-min Rain = 0
KSB1 181824Z 26018KT 16/M01 A3004 RMK A01 T01551008  RH  033%=      5-min Rain = 0
KSB1 181825Z 27020KT 15/M01 A3004 RMK A01 T01541008  RH  033%=      5-min Rain = 0
KSB1 181826Z 26021G26KT 15/M01 A3004 RMK A01 T01531008  RH  033%=      5-min Rain = 0
KSB1 181827Z 27016KT 15/M01 A3004 RMK A01 T01541008  RH  033%=      5-min Rain = 0
KSB1 181828Z 26014KT 16/M01 A3004 RMK A01 T01561007  RH  033%=      5-min Rain = 0
KSB1 181829Z 25016KT 16/M01 A3004 RMK A01 T01581006  RH  033%=      5-min Rain = 0
KSB1 181830Z 26019G24KT 16/M01 A3003 RMK A01 T01601008  RH  032%=      5-min Rain = 0
KSB1 181831Z 26017KT 16/M01 A3004 RMK A01 T01601008  RH  032%=      5-min Rain = 0
KSB1 181832Z 26019KT 16/M01 A3003 RMK A01 T01611009  RH  031%=      5-min Rain = 0
KSB1 181833Z 26018KT 16/M01 A3003 RMK A01 T01601009  RH  031%=      5-min Rain = 0
KSB1 181834Z 26019KT 16/M01 A3003 RMK A01 T01601009  RH  031%=      5-min Rain = 0
KSB1 181835Z 27018G23KT 16/M01 A3003 RMK A01 T01601009  RH  031%=      5-min Rain = 0
KSB1 181836Z 27014KT 16/M01 A3003 RMK A01 T01641006  RH  032%=      5-min Rain = 0
KSB1 181837Z 27015G21KT 17/M01 A3003 RMK A01 T01661005  RH  031%=      5-min Rain = 0
KSB1 181838Z 26017KT 17/M01 A3003 RMK A01 T01681005  RH  031%=      5-min Rain = 0
KSB1 181839Z 26019G25KT 17/M01 A3003 RMK A01 T01681008  RH  030%=      5-min Rain = 0
KSB1 181840Z 27024G29KT 17/M01 A3003 RMK A01 T01671007  RH  030%=      5-min Rain = 0
KSB1 181841Z 27024G29KT 17/M01 A3002 RMK A01 T01651008  RH  031%=      5-min Rain = 0
KSB1 181842Z 27022G28KT 16/M01 A3003 RMK A01 T01631008  RH  031%=      5-min Rain = 0
KSB1 181843Z 26021G27KT 16/M01 A3003 RMK A01 T01641006  RH  031%=      5-min Rain = 0
KSB1 181844Z 27019KT 17/M01 A3003 RMK A01 T01651006  RH  031%=      5-min Rain = 0
KSB1 181845Z 27024G32KT 17/M01 A3003 RMK A01 T01671006  RH  031%=      5-min Rain = 0
KSB1 181846Z 27022G28KT 17/M01 A3003 RMK A01 T01671006  RH  031%=      5-min Rain = 0
KSB1 181847Z 27022KT 17/M01 A3003 RMK A01 T01661006  RH  031%=      5-min Rain = 0
KSB1 181848Z 28022G30KT 17/M01 A3002 RMK A01 T01661006  RH  031%=      5-min Rain = 0
KSB1 181849Z 26017KT 17/M01 A3003 RMK A01 T01651006  RH  031%=      5-min Rain = 0
KSB1 181850Z 26021KT 17/M01 A3003 RMK A01 T01671005  RH  031%=      5-min Rain = 0
KSB1 181851Z 26019G24KT 17/M01 A3003 RMK A01 T01681007  RH  031%=      5-min Rain = 0
KSB1 181852Z 27018KT 17/M01 A3003 RMK A01 T01661006  RH  031%=      5-min Rain = 0
KSB1 181853Z 26022KT 17/M01 A3002 RMK A01 T01661007  RH  031%=      5-min Rain = 0
KSB1 181854Z 26020G27KT 17/M01 A3002 RMK A01 T01651007  RH  031%=      5-min Rain = 0
KSB1 181855Z 27019KT 17/M01 A3002 RMK A01 T01651006  RH  031%=      5-min Rain = 0
KSB1 181856Z 26020KT 16/M01 A3002 RMK A01 T01641006  RH  031%=      5-min Rain = 0
KSB1 181857Z 28022KT 17/M00 A3002 RMK A01 T01651004  RH  031%=      5-min Rain = 0
KSB1 181858Z 27018G27KT 17/M01 A3002 RMK A01 T01671005  RH  031%=      5-min Rain = 0
KSB1 181859Z 27021G26KT 17/M01 A3001 RMK A01 T01691005  RH  031%=      5-min Rain = 0
KSB1 181900Z 27020KT 17/M01 A3001 RMK A01 T01681006  RH  031%=      5-min Rain = 0
KSB1 181901Z 27018KT 17/M01 A3001 RMK A01 T01671005  RH  031%=      5-min Rain = 0
KSB1 181902Z 28018KT 17/M01 A3001 RMK A01 T01661006  RH  031%=      5-min Rain = 0
KSB1 181903Z 26016KT 17/M01 A3001 RMK A01 T01651005  RH  031%=      5-min Rain = 0
KSB1 181904Z 26016KT 17/M01 A3001 RMK A01 T01661005  RH  031%=      5-min Rain = 0
KSB1 181905Z 27016G21KT 17/M01 A3001 RMK A01 T01671005  RH  031%=      5-min Rain = 0
KSB1 181906Z 27019KT 17/M01 A30 RMK A01 T01661005  RH  031%=      5-min Rain = 0
KSB1 181907Z 26019KT 17/M01 A30 RMK A01 T01671005  RH  031%=      5-min Rain = 0
KSB1 181908Z 26014G19KT 17/M01 A30 RMK A01 T01661006  RH  031%=      5-min Rain = 0
KSB1 181909Z 26013KT 17/M00 A30 RMK A01 T01661003  RH  032%=      5-min Rain = 0
KSB1 181910Z 27015G20KT 17/M00 A30 RMK A01 T01701004  RH  031%=      5-min Rain = 0
KSB1 181911Z 26014KT 17/M01 A30 RMK A01 T01681005  RH  031%=      5-min Rain = 0
KSB1 181912Z 26020G25KT 17/M01 A2999 RMK A01 T01691005  RH  031%=      5-min Rain = 0
KSB1 181913Z 27019KT 17/M01 A2999 RMK A01 T01701005  RH  030%=      5-min Rain = 0
KSB1 181914Z 26015KT 17/M01 A2999 RMK A01 T01701006  RH  030%=      5-min Rain = 0
KSB1 181915Z 25017KT 17/M01 A2999 RMK A01 T01701006  RH  030%=      5-min Rain = 0
KSB1 181916Z 25015KT 17/M01 A2999 RMK A01 T01681006  RH  030%=      5-min Rain = 0
KSB1 181917Z 26015KT 17/M01 A2999 RMK A01 T01681006  RH  031%=      5-min Rain = 0
KSB1 181918Z 27021G28KT 17/M01 A2999 RMK A01 T01681007  RH  030%=      5-min Rain = 0
KSB1 181919Z 26021G27KT 17/M01 A2998 RMK A01 T01671008  RH  030%=      5-min Rain = 0
KSB1 181920Z 27019KT 17/M01 A2999 RMK A01 T01661008  RH  031%=      5-min Rain = 0
KSB1 181921Z 27017KT 17/M01 A2998 RMK A01 T01671008  RH  030%=      5-min Rain = 0
KSB1 181922Z 27018G23KT 17/M01 A2998 RMK A01 T01681008  RH  030%=      5-min Rain = 0
KSB1 181923Z 25023KT 17/M01 A2997 RMK A01 T01681008  RH  030%=      5-min Rain = 0
KSB1 181924Z 25017KT 17/M01 A2998 RMK A01 T01671008  RH  030%=      5-min Rain = 0
KSB1 181925Z 27015KT 17/M01 A2998 RMK A01 T01661007  RH  031%=      5-min Rain = 0
KSB1 181926Z 27017KT 17/M00 A2998 RMK A01 T01691004  RH  031%=      5-min Rain = 0
KSB1 181927Z 27018KT 17/M01 A2998 RMK A01 T01711006  RH  030%=      5-min Rain = 0
KSB1 181928Z 27015KT 17/M01 A2997 RMK A01 T01701007  RH  030%=      5-min Rain = 0
KSB1 181929Z 26010KT 17/M01 A2997 RMK A01 T01701005  RH  030%=      5-min Rain = 0
KSB1 181930Z 26017G22KT 17/M00 A2997 RMK A01 T01741004  RH  030%=      5-min Rain = 0
KSB1 181931Z 26019G24KT 17/M01 A2997 RMK A01 T01731008  RH  029%=      5-min Rain = 0
KSB1 181932Z 25013G20KT 17/M01 A2997 RMK A01 T01711007  RH  030%=      5-min Rain = 0
KSB1 181933Z 27011G16KT 17/M01 A2997 RMK A01 T01721005  RH  030%=      5-min Rain = 0
KSB1 181934Z 26014KT 17/M01 A2996 RMK A01 T01741006  RH  030%=      5-min Rain = 0
KSB1 181935Z 27018G30KT 17/M01 A2996 RMK A01 T01721007  RH  030%=      5-min Rain = 0
KSB1 181936Z 27019KT 17/M01 A2996 RMK A01 T01721006  RH  030%=      5-min Rain = 0
KSB1 181937Z 27017KT 17/M01 A2996 RMK A01 T01731007  RH  030%=      5-min Rain = 0
KSB1 181938Z 26022G28KT 17/M01 A2996 RMK A01 T01741006  RH  029%=      5-min Rain = 0
KSB1 181939Z 26016KT 17/M01 A2997 RMK A01 T01711008  RH  030%=      5-min Rain = 0
KSB1 181940Z 28018KT 17/M01 A2997 RMK A01 T01701007  RH  030%=      5-min Rain = 0
KSB1 181941Z 27017G23KT 17/M01 A2996 RMK A01 T01721005  RH  030%=      5-min Rain = 0
KSB1 181942Z 26018KT 17/M01 A2996 RMK A01 T01741005  RH  030%=      5-min Rain = 0
KSB1 181943Z 26017G22KT 17/M01 A2996 RMK A01 T01721006  RH  030%=      5-min Rain = 0
KSB1 181944Z 27020KT 17/M01 A2995 RMK A01 T01711005  RH  030%=      5-min Rain = 0
KSB1 181945Z 28017G22KT 17/M01 A2996 RMK A01 T01711005  RH  030%=      5-min Rain = 0
KSB1 181946Z 24022KT 17/M01 A2995 RMK A01 T01711005  RH  030%=      5-min Rain = 0
KSB1 181947Z 24020G26KT 17/M01 A2995 RMK A01 T01701006  RH  030%=      5-min Rain = 0
KSB1 181948Z 25016KT 17/M01 A2995 RMK A01 T01711005  RH  030%=      5-min Rain = 0
KSB1 181949Z 27018G23KT 17/M01 A2995 RMK A01 T01721005  RH  030%=      5-min Rain = 0
KSB1 181950Z 28020G25KT 17/M01 A2995 RMK A01 T01721006  RH  030%=      5-min Rain = 0
KSB1 181951Z 27016KT 17/M01 A2995 RMK A01 T01721005  RH  030%=      5-min Rain = 0
KSB1 181952Z 27018KT 17/M01 A2995 RMK A01 T01741005  RH  030%=      5-min Rain = 0
KSB1 181953Z 27018G25KT 18/M01 A2995 RMK A01 T01751005  RH  030%=      5-min Rain = 0
KSB1 181954Z 26020KT 17/M01 A2995 RMK A01 T01741006  RH  029%=      5-min Rain = 0
KSB1 181955Z 27020KT 17/M01 A2995 RMK A01 T01721007  RH  030%=      5-min Rain = 0
KSB1 181956Z 27018G25KT 17/M01 A2995 RMK A01 T01731007  RH  029%=      5-min Rain = 0
KSB1 181957Z 26017KT 17/M01 A2995 RMK A01 T01731007  RH  029%=      5-min Rain = 0
KSB1 181958Z 26022G31KT 18/M01 A2994 RMK A01 T01751006  RH  029%=      5-min Rain = 0
KSB1 181959Z 26018G23KT 18/M01 A2995 RMK A01 T01751007  RH  029%=      5-min Rain = 0
KSB1 182000Z 27019KT 17/M01 A2995 RMK A01 T01741007  RH  029%=      5-min Rain = 0
KSB1 182001Z 26020G25KT 18/M01 A2994 RMK A01 T01751007  RH  029%=      5-min Rain = 0
KSB1 182002Z 27023G31KT 18/M01 A2994 RMK A01 T01751008  RH  029%=      5-min Rain = 0
KSB1 182003Z 27023KT 17/M01 A2994 RMK A01 T01741008  RH  029%=      5-min Rain = 0
KSB1 182004Z 26022G34KT 17/M01 A2994 RMK A01 T01741008  RH  029%=      5-min Rain = 0
KSB1 182005Z 28024G31KT 17/M01 A2994 RMK A01 T01731008  RH  029%=      5-min Rain = 0
KSB1 182006Z 28022G27KT 17/M01 A2994 RMK A01 T01731007  RH  029%=      5-min Rain = 0
KSB1 182007Z 28022G28KT 17/M01 A2994 RMK A01 T01731007  RH  029%=      5-min Rain = 0
KSB1 182008Z 28027G35KT 17/M01 A2994 RMK A01 T01721008  RH  029%=      5-min Rain = 0
KSB1 182009Z 26023KT 17/M01 A2994 RMK A01 T01711008  RH  030%=      5-min Rain = 0
KSB1 182010Z 26022G28KT 17/M01 A2994 RMK A01 T01721007  RH  030%=      5-min Rain = 0
KSB1 182011Z 27023KT 17/M01 A2994 RMK A01 T01731007  RH  029%=      5-min Rain = 0
KSB1 182012Z 28025G31KT 17/M01 A2994 RMK A01 T01721007  RH  030%=      5-min Rain = 0
KSB1 182013Z 28024G30KT 17/M01 A2994 RMK A01 T01711007  RH  030%=      5-min Rain = 0
KSB1 182014Z 28021G28KT 17/M01 A2994 RMK A01 T01721006  RH  030%=      5-min Rain = 0
KSB1 182015Z 28023G31KT 17/M01 A2994 RMK A01 T01741006  RH  030%=      5-min Rain = 0
KSB1 182016Z 27024KT 17/M01 A2994 RMK A01 T01741006  RH  029%=      5-min Rain = 0
KSB1 182017Z 27025KT 17/M01 A2994 RMK A01 T01721006  RH  030%=      5-min Rain = 0
KSB1 182018Z 28021G26KT 17/M01 A2994 RMK A01 T01721006  RH  030%=      5-min Rain = 0
KSB1 182019Z 28023G31KT 17/M01 A2994 RMK A01 T01731006  RH  030%=      5-min Rain = 0
KSB1 182020Z 28021G28KT 18/M01 A2994 RMK A01 T01751005  RH  030%=      5-min Rain = 0
KSB1 182021Z 28023G30KT 18/M01 A2994 RMK A01 T01761005  RH  029%=      5-min Rain = 0
KSB1 182022Z 28020KT 18/M00 A2994 RMK A01 T01751004  RH  030%=      5-min Rain = 0
KSB1 182023Z 29025G31KT 18/M00 A2994 RMK A01 T01751003  RH  030%=      5-min Rain = 0
KSB1 182024Z 28019G27KT 17/M00 A2994 RMK A01 T01741004  RH  030%=      5-min Rain = 0
KSB1 182025Z 28020G27KT 17/M00 A2994 RMK A01 T01731003  RH  030%=      5-min Rain = 0
KSB1 182026Z 27020G26KT 17/M00 A2994 RMK A01 T01741003  RH  030%=      5-min Rain = 0
KSB1 182027Z 28023KT 17/M00 A2994 RMK A01 T01741003  RH  030%=      5-min Rain = 0
KSB1 182028Z 27021KT 17/M00 A2994 RMK A01 T01731003  RH  030%=      5-min Rain = 0
KSB1 182029Z 28017G25KT 17/M00 A2995 RMK A01 T01741002  RH  030%=      5-min Rain = 0
KSB1 182030Z 28023KT 18/M00 A2995 RMK A01 T01761002  RH  030%=      5-min Rain = 0
KSB1 182031Z 27023KT 18/M00 A2994 RMK A01 T01751004  RH  030%=      5-min Rain = 0
KSB1 182032Z 29022G27KT 17/M00 A2994 RMK A01 T01741003  RH  030%=      5-min Rain = 0
KSB1 182033Z 27022G27KT 17/M00 A2994 RMK A01 T01731002  RH  030%=      5-min Rain = 0
KSB1 182034Z 27019G25KT 17/M00 A2994 RMK A01 T01731002  RH  031%=      5-min Rain = 0
KSB1 182035Z 27021KT 17/M00 A2994 RMK A01 T01741002  RH  030%=      5-min Rain = 0
KSB1 182036Z 28022KT 17/M00 A2994 RMK A01 T01741002  RH  030%=      5-min Rain = 0
KSB1 182037Z 28020KT 18/M00 A2994 RMK A01 T01751002  RH  030%=      5-min Rain = 0
KSB1 182038Z 29024G29KT 17/M00 A2994 RMK A01 T01741002  RH  030%=      5-min Rain = 0
KSB1 182039Z 30022G29KT 17/M00 A2994 RMK A01 T01721002  RH  031%=      5-min Rain = 0
KSB1 182040Z 28019G26KT 17/M00 A2994 RMK A01 T01701003  RH  031%=      5-min Rain = 0
KSB1 182041Z 28023G29KT 17/M00 A2994 RMK A01 T01711002  RH  031%=      5-min Rain = 0
KSB1 182042Z 29023G32KT 17/M00 A2994 RMK A01 T01731002  RH  031%=      5-min Rain = 0
KSB1 182043Z 28024G30KT 17/M00 A2993 RMK A01 T01721003  RH  031%=      5-min Rain = 0
KSB1 182044Z 28019G24KT 17/M00 A2994 RMK A01 T01701004  RH  031%=      5-min Rain = 0
KSB1 182045Z 29020G27KT 17/M00 A2993 RMK A01 T01691003  RH  031%=      5-min Rain = 0
KSB1 182046Z 27018G24KT 17/M00 A2993 RMK A01 T01701001  RH  031%=      5-min Rain = 0
KSB1 182047Z 28018G24KT 17/M00 A2993 RMK A01 T01711001  RH  031%=      5-min Rain = 0
KSB1 182048Z 28021G27KT 17/M00 A2993 RMK A01 T01711001  RH  031%=      5-min Rain = 0
KSB1 182049Z 28020KT 17/00 A2993 RMK A01 T017200-0  RH  031%=      5-min Rain = 0
KSB1 182050Z 28022KT 17/M00 A2993 RMK A01 T01721001  RH  031%=      5-min Rain = 0
KSB1 182051Z 28025KT 17/M00 A2993 RMK A01 T01721001  RH  031%=      5-min Rain = 0
KSB1 182052Z 27025G32KT 17/M00 A2993 RMK A01 T01711004  RH  031%=      5-min Rain = 0
KSB1 182053Z 27018KT 17/M00 A2993 RMK A01 T01701003  RH  031%=      5-min Rain = 0
KSB1 182054Z 27020KT 17/M00 A2993 RMK A01 T01701002  RH  031%=      5-min Rain = 0
KSB1 182055Z 28021G27KT 17/M00 A2993 RMK A01 T01741002  RH  030%=      5-min Rain = 0
KSB1 182056Z 29019G24KT 17/M00 A2994 RMK A01 T01741002  RH  030%=      5-min Rain = 0
KSB1 182057Z 28018KT 17/M00 A2994 RMK A01 T01741003  RH  030%=      5-min Rain = 0
KSB1 182058Z 27019KT 17/M00 A2994 RMK A01 T01741002  RH  030%=      5-min Rain = 0
KSB1 182059Z 28019KT 17/M00 A2994 RMK A01 T01741002  RH  030%=      5-min Rain = 0
KSB1 182100Z 28017KT 17/M00 A2994 RMK A01 T01721002  RH  031%=      5-min Rain = 0
KSB1 182101Z 26021KT 17/M00 A2994 RMK A01 T01741002  RH  030%=      5-min Rain = 0
KSB1 182102Z 28017KT 18/M00 A2994 RMK A01 T01761002  RH  030%=      5-min Rain = 0
KSB1 182103Z 28019G25KT 18/M00 A2994 RMK A01 T01781001  RH  030%=      5-min Rain = 0
KSB1 182104Z 29019G24KT 18/M00 A2994 RMK A01 T01761002  RH  030%=      5-min Rain = 0
KSB1 182105Z 28023KT 18/M00 A2994 RMK A01 T01751002  RH  030%=      5-min Rain = 0
KSB1 182106Z 28020G25KT 18/M00 A2994 RMK A01 T01751003  RH  030%=      5-min Rain = 0
KSB1 182107Z 27016KT 18/M00 A2994 RMK A01 T01751004  RH  030%=      5-min Rain = 0
KSB1 182108Z 28016KT 18/M00 A2994 RMK A01 T01761002  RH  030%=      5-min Rain = 0
KSB1 182109Z 28019G31KT 18/M00 A2994 RMK A01 T01781002  RH  030%=      5-min Rain = 0
KSB1 182110Z 29023G31KT 18/M00 A2994 RMK A01 T01781002  RH  030%=      5-min Rain = 0
KSB1 182111Z 28024KT 18/M00 A2994 RMK A01 T01761004  RH  029%=      5-min Rain = 0
KSB1 182112Z 28023KT 18/M01 A2994 RMK A01 T01751005  RH  030%=      5-min Rain = 0
KSB1 182113Z 26024KT 18/M01 A2994 RMK A01 T01751005  RH  030%=      5-min Rain = 0
KSB1 182114Z 26018G23KT 18/M01 A2994 RMK A01 T01751005  RH  029%=      5-min Rain = 0
KSB1 182115Z 28017G22KT 18/M01 A2994 RMK A01 T01761005  RH  029%=      5-min Rain = 0
KSB1 182116Z 29022G29KT 18/M00 A2994 RMK A01 T01781003  RH  029%=      5-min Rain = 0
KSB1 182117Z 28027G33KT 18/M00 A2994 RMK A01 T01781003  RH  029%=      5-min Rain = 0
KSB1 182118Z 28027KT 18/M00 A2994 RMK A01 T01751004  RH  030%=      5-min Rain = 0
KSB1 182119Z 28019KT 17/M00 A2994 RMK A01 T01731004  RH  030%=      5-min Rain = 0
KSB1 182120Z 27022G27KT 18/M00 A2994 RMK A01 T01751002  RH  030%=      5-min Rain = 0
KSB1 182121Z 27022G27KT 18/M00 A2994 RMK A01 T01751002  RH  030%=      5-min Rain = 0
KSB1 182122Z 28023KT 18/M00 A2995 RMK A01 T01751003  RH  030%=      5-min Rain = 0
KSB1 182123Z 28022G27KT 17/M00 A2994 RMK A01 T01741004  RH  030%=      5-min Rain = 0
KSB1 182124Z 27020KT 17/M00 A2994 RMK A01 T01731003  RH  030%=      5-min Rain = 0
KSB1 182125Z 26018G23KT 17/M00 A2994 RMK A01 T01731003  RH  030%=      5-min Rain = 0
KSB1 182126Z 29017G24KT 18/M00 A2995 RMK A01 T01751002  RH  030%=      5-min Rain = 0
KSB1 182127Z 30013G22KT 18/M00 A2995 RMK A01 T01761002  RH  030%=      5-min Rain = 0
KSB1 182128Z 28013KT 18/00 A2995 RMK A01 T017800-0  RH  030%=      5-min Rain = 0
KSB1 182129Z 28022G28KT 18/M00 A2994 RMK A01 T01781001  RH  030%=      5-min Rain = 0
KSB1 182130Z 28020KT 18/M00 A2994 RMK A01 T01761002  RH  030%=      5-min Rain = 0
KSB1 182131Z 28019G24KT 18/M00 A2994 RMK A01 T01751002  RH  030%=      5-min Rain = 0
KSB1 182132Z 28018G24KT 18/M00 A2994 RMK A01 T01751002  RH  030%=      5-min Rain = 0
KSB1 182133Z 28018G23KT 18/M00 A2994 RMK A01 T01761002  RH  030%=      5-min Rain = 0
KSB1 182134Z 28017KT 18/M00 A2994 RMK A01 T01771001  RH  030%=      5-min Rain = 0
KSB1 182135Z 28020KT 18/M00 A2994 RMK A01 T01771001  RH  030%=      5-min Rain = 0
KSB1 182136Z 28024KT 18/M00 A2994 RMK A01 T01771001  RH  030%=      5-min Rain = 0
KSB1 182137Z 28023G28KT 18/M00 A2994 RMK A01 T01751003  RH  030%=      5-min Rain = 0
KSB1 182138Z 28021G27KT 17/M00 A2994 RMK A01 T01741001  RH  031%=      5-min Rain = 0
KSB1 182139Z 28018G29KT 17/00 A2994 RMK A01 T017400-0  RH  031%=      5-min Rain = 0
KSB1 182140Z 28023G33KT 18/M00 A2994 RMK A01 T01751002  RH  030%=      5-min Rain = 0
KSB1 182141Z 28027KT 18/M00 A2994 RMK A01 T01751001  RH  030%=      5-min Rain = 0
KSB1 182142Z 28020G27KT 17/M00 A2994 RMK A01 T01731002  RH  031%=      5-min Rain = 0
KSB1 182143Z 27022KT 17/M00 A2994 RMK A01 T01721001  RH  031%=      5-min Rain = 0
KSB1 182144Z 28020KT 17/00 A2994 RMK A01 T017300-0  RH  031%=      5-min Rain = 0
KSB1 182145Z 28026G33KT 17/00 A2994 RMK A01 T017300-0  RH  031%=      5-min Rain = 0
KSB1 182146Z 29025G34KT 17/M00 A2994 RMK A01 T01721001  RH  031%=      5-min Rain = 0
KSB1 182147Z 29019G24KT 17/M00 A2994 RMK A01 T01711001  RH  031%=      5-min Rain = 0
KSB1 182148Z 28022G27KT 17/00 A2994 RMK A01 T017100-0  RH  031%=      5-min Rain = 0
KSB1 182149Z 28018G24KT 17/M00 A2994 RMK A01 T01721001  RH  031%=      5-min Rain = 0
KSB1 182150Z 28024G30KT 17/00 A2994 RMK A01 T01740001  RH  031%=      5-min Rain = 0
KSB1 182151Z 28023G30KT 17/00 A2995 RMK A01 T01740001  RH  031%=      5-min Rain = 0
KSB1 182152Z 28024G30KT 17/00 A2994 RMK A01 T01740001  RH  031%=      5-min Rain = 0
KSB1 182153Z 28022G28KT 17/00 A2994 RMK A01 T01720000  RH  031%=      5-min Rain = 0
KSB1 182154Z 28017KT 17/00 A2995 RMK A01 T01720002  RH  032%=      5-min Rain = 0
KSB1 182155Z 28020KT 17/00 A2994 RMK A01 T01740003  RH  031%=      5-min Rain = 0
KSB1 182156Z 28022G29KT 18/00 A2994 RMK A01 T01750001  RH  031%=      5-min Rain = 0
KSB1 182157Z 29021G29KT 17/00 A2994 RMK A01 T01730001  RH  031%=      5-min Rain = 0
KSB1 182158Z 27021KT 17/00 A2994 RMK A01 T01720001  RH  031%=      5-min Rain = 0
KSB1 182159Z 28021G28KT 17/00 A2994 RMK A01 T01730001  RH  031%=      5-min Rain = 0
KSB1 182200Z 28022G29KT 17/00 A2994 RMK A01 T01730002  RH  031%=      5-min Rain = 0
KSB1 182201Z 27022G28KT 17/00 A2994 RMK A01 T01730002  RH  031%=      5-min Rain = 0
KSB1 182202Z 27026G33KT 17/00 A2993 RMK A01 T01730003  RH  032%=      5-min Rain = 0
KSB1 182203Z 27026G33KT 17/00 A2993 RMK A01 T01710002  RH  032%=      5-min Rain = 0
KSB1 182204Z 27024G29KT 17/00 A2993 RMK A01 T01700003  RH  032%=      5-min Rain = 0
KSB1 182205Z 27022G28KT 17/00 A2993 RMK A01 T01700004  RH  032%=      5-min Rain = 0
KSB1 182206Z 27022G27KT 17/00 A2993 RMK A01 T01710004  RH  032%=      5-min Rain = 0
KSB1 182207Z 27021KT 17/00 A2993 RMK A01 T01700003  RH  032%=      5-min Rain = 0
KSB1 182208Z 28020G25KT 17/00 A2994 RMK A01 T01700004  RH  032%=      5-min Rain = 0
KSB1 182209Z 28019G24KT 17/00 A2993 RMK A01 T01710004  RH  032%=      5-min Rain = 0
KSB1 182210Z 27017G22KT 17/00 A2993 RMK A01 T01720004  RH  032%=      5-min Rain = 0
KSB1 182211Z 27018G26KT 18/01 A2994 RMK A01 T01750005  RH  032%=      5-min Rain = 0
KSB1 182212Z 27025G30KT 18/01 A2993 RMK A01 T01760005  RH  031%=      5-min Rain = 0
KSB1 182213Z 26022G28KT 18/00 A2993 RMK A01 T01750004  RH  031%=      5-min Rain = 0
KSB1 182214Z 27020G25KT 17/00 A2993 RMK A01 T01740004  RH  032%=      5-min Rain = 0
KSB1 182215Z 28021G26KT 17/00 A2994 RMK A01 T01740004  RH  032%=      5-min Rain = 0
KSB1 182216Z 28025G31KT 17/00 A2994 RMK A01 T01740004  RH  032%=      5-min Rain = 0
KSB1 182217Z 27027G32KT 17/00 A2993 RMK A01 T01740003  RH  032%=      5-min Rain = 0
KSB1 182218Z 28026KT 17/00 A2993 RMK A01 T01720003  RH  032%=      5-min Rain = 0
KSB1 182219Z 28020KT 17/00 A2993 RMK A01 T01720003  RH  032%=      5-min Rain = 0
KSB1 182220Z 27025G33KT 17/00 A2993 RMK A01 T01730003  RH  032%=      5-min Rain = 0
KSB1 182221Z 27027G35KT 17/00 A2993 RMK A01 T01730002  RH  032%=      5-min Rain = 0
KSB1 182222Z 27020G26KT 17/00 A2994 RMK A01 T01720003  RH  032%=      5-min Rain = 0
KSB1 182223Z 27023KT 17/00 A2994 RMK A01 T01740004  RH  032%=      5-min Rain = 0
KSB1 182224Z 27025G30KT 17/00 A2993 RMK A01 T01740003  RH  031%=      5-min Rain = 0
KSB1 182225Z 28025KT 17/00 A2993 RMK A01 T01730003  RH  032%=      5-min Rain = 0
KSB1 182226Z 28022G28KT 17/00 A2993 RMK A01 T01720004  RH  032%=      5-min Rain = 0
KSB1 182227Z 27024KT 17/00 A2993 RMK A01 T01720004  RH  032%=      5-min Rain = 0
KSB1 182228Z 28018G23KT 17/00 A2993 RMK A01 T01730004  RH  032%=      5-min Rain = 0
KSB1 182229Z 29021KT 18/00 A2993 RMK A01 T01750004  RH  031%=      5-min Rain = 0
KSB1 182230Z 28023G29KT 18/00 A2993 RMK A01 T01750003  RH  031%=      5-min Rain = 0
KSB1 182231Z 28023G29KT 17/00 A2994 RMK A01 T01740003  RH  031%=      5-min Rain = 0
KSB1 182232Z 28028G33KT 17/00 A2993 RMK A01 T01740003  RH  031%=      5-min Rain = 0
KSB1 182233Z 29020G26KT 17/00 A2994 RMK A01 T01740003  RH  032%=      5-min Rain = 0
KSB1 182234Z 29021G29KT 17/00 A2994 RMK A01 T01740003  RH  031%=      5-min Rain = 0
KSB1 182235Z 28021G26KT 17/00 A2994 RMK A01 T01740004  RH  032%=      5-min Rain = 0
KSB1 182236Z 28020G30KT 17/00 A2994 RMK A01 T01730004  RH  032%=      5-min Rain = 0
KSB1 182237Z 29024G31KT 17/00 A2994 RMK A01 T01730004  RH  032%=      5-min Rain = 0
KSB1 182238Z 28022G27KT 17/00 A2994 RMK A01 T01730003  RH  032%=      5-min Rain = 0
KSB1 182239Z 29025G31KT 17/00 A2993 RMK A01 T01730004  RH  032%=      5-min Rain = 0
KSB1 182240Z 28021KT 17/00 A2993 RMK A01 T01720004  RH  032%=      5-min Rain = 0
KSB1 182241Z 28020G28KT 17/00 A2993 RMK A01 T01730004  RH  032%=      5-min Rain = 0
KSB1 182242Z 28023G28KT 17/01 A2994 RMK A01 T01730005  RH  032%=      5-min Rain = 0
KSB1 182243Z 28024KT 17/00 A2994 RMK A01 T01720004  RH  032%=      5-min Rain = 0
KSB1 182244Z 28019KT 17/01 A2994 RMK A01 T01720005  RH  032%=      5-min Rain = 0
KSB1 182245Z 29017G22KT 17/01 A2994 RMK A01 T01730005  RH  032%=      5-min Rain = 0
KSB1 182246Z 29019KT 17/01 A2994 RMK A01 T01740005  RH  032%=      5-min Rain = 0
KSB1 182247Z 29018KT 17/01 A2994 RMK A01 T01740005  RH  032%=      5-min Rain = 0
KSB1 182248Z 28022KT 17/01 A2994 RMK A01 T01740005  RH  032%=      5-min Rain = 0
KSB1 182249Z 27023G28KT 17/01 A2993 RMK A01 T01730005  RH  032%=      5-min Rain = 0
KSB1 182250Z 28020G27KT 17/01 A2994 RMK A01 T01720005  RH  032%=      5-min Rain = 0
KSB1 182251Z 28022G27KT 17/01 A2994 RMK A01 T01720005  RH  032%=      5-min Rain = 0
KSB1 182252Z 29021KT 17/00 A2994 RMK A01 T01710004  RH  032%=      5-min Rain = 0
KSB1 182253Z 27022G27KT 17/00 A2994 RMK A01 T01710004  RH  032%=      5-min Rain = 0
KSB1 182254Z 28024KT 17/00 A2994 RMK A01 T01710003  RH  032%=      5-min Rain = 0
KSB1 182255Z 28021G27KT 17/00 A2994 RMK A01 T01700004  RH  032%=      5-min Rain = 0
KSB1 182256Z 29017G24KT 17/00 A2994 RMK A01 T01710004  RH  032%=      5-min Rain = 0
KSB1 182257Z 29022KT 17/00 A2994 RMK A01 T01710004  RH  032%=      5-min Rain = 0
KSB1 182258Z 30019G27KT 17/00 A2994 RMK A01 T01710004  RH  032%=      5-min Rain = 0
KSB1 182259Z 29025G30KT 17/00 A2994 RMK A01 T01690004  RH  033%=      5-min Rain = 0
KSB1 182300Z 29020G25KT 17/01 A2994 RMK A01 T01690005  RH  033%=      5-min Rain = 0
KSB1 182301Z 29018G23KT 17/01 A2995 RMK A01 T01690005  RH  033%=      5-min Rain = 0
KSB1 182302Z 28024G30KT 17/01 A2994 RMK A01 T01700005  RH  033%=      5-min Rain = 0
KSB1 182303Z 30021G30KT 17/00 A2994 RMK A01 T01700004  RH  033%=      5-min Rain = 0
KSB1 182304Z 28019KT 17/00 A2994 RMK A01 T01690004  RH  033%=      5-min Rain = 0
KSB1 182305Z 29019KT 17/01 A2994 RMK A01 T01700006  RH  033%=      5-min Rain = 0
KSB1 182306Z 29019G26KT 17/01 A2995 RMK A01 T01700006  RH  033%=      5-min Rain = 0
KSB1 182307Z 27018G26KT 17/01 A2994 RMK A01 T01700006  RH  033%=      5-min Rain = 0
KSB1 182308Z 28017G23KT 17/01 A2994 RMK A01 T01700006  RH  033%=      5-min Rain = 0
KSB1 182309Z 29015G20KT 17/01 A2994 RMK A01 T01700007  RH  033%=      5-min Rain = 0
KSB1 182310Z 29016G21KT 17/01 A2994 RMK A01 T01700006  RH  033%=      5-min Rain = 0
KSB1 182311Z 29015G20KT 17/01 A2995 RMK A01 T01700006  RH  033%=      5-min Rain = 0
KSB1 182312Z 29015G23KT 17/01 A2995 RMK A01 T01700006  RH  033%=      5-min Rain = 0
KSB1 182313Z 29017G26KT 17/01 A2994 RMK A01 T01710006  RH  033%=      5-min Rain = 0
KSB1 182314Z 28016G24KT 17/01 A2995 RMK A01 T01710006  RH  033%=      5-min Rain = 0
KSB1 182315Z 28022KT 17/01 A2995 RMK A01 T01700007  RH  033%=      5-min Rain = 0
KSB1 182316Z 28021G29KT 17/01 A2995 RMK A01 T01690007  RH  033%=      5-min Rain = 0
KSB1 182317Z 28019G27KT 17/01 A2995 RMK A01 T01690007  RH  033%=      5-min Rain = 0
KSB1 182318Z 29017G22KT 17/01 A2995 RMK A01 T01680007  RH  034%=      5-min Rain = 0
KSB1 182319Z 29016G21KT 17/01 A2995 RMK A01 T01680008  RH  034%=      5-min Rain = 0
KSB1 182320Z 28020G29KT 17/01 A2995 RMK A01 T01680008  RH  034%=      5-min Rain = 0
KSB1 182321Z 28019G24KT 17/01 A2994 RMK A01 T01670009  RH  034%=      5-min Rain = 0
KSB1 182322Z 30019G26KT 17/01 A2995 RMK A01 T01670009  RH  034%=      5-min Rain = 0
KSB1 182323Z 28017G24KT 17/01 A2994 RMK A01 T01670010  RH  035%=      5-min Rain = 0
KSB1 182324Z 28019G27KT 17/01 A2994 RMK A01 T01670011  RH  035%=      5-min Rain = 0
KSB1 182325Z 28019G24KT 17/01 A2994 RMK A01 T01670011  RH  035%=      5-min Rain = 0
KSB1 182326Z 29020KT 17/01 A2994 RMK A01 T01670010  RH  035%=      5-min Rain = 0
KSB1 182327Z 29022G28KT 17/01 A2994 RMK A01 T01670011  RH  035%=      5-min Rain = 0
KSB1 182328Z 30021KT 17/01 A2994 RMK A01 T01660011  RH  035%=      5-min Rain = 0
KSB1 182329Z 30018G24KT 17/01 A2994 RMK A01 T01650011  RH  035%=      5-min Rain = 0
KSB1 182330Z 30020G26KT 16/01 A2994 RMK A01 T01640011  RH  035%=      5-min Rain = 0
KSB1 182331Z 30019G27KT 16/01 A2995 RMK A01 T01640011  RH  035%=      5-min Rain = 0
KSB1 182332Z 30019G24KT 16/01 A2995 RMK A01 T01640012  RH  036%=      5-min Rain = 0
KSB1 182333Z 29022G29KT 16/01 A2995 RMK A01 T01640012  RH  036%=      5-min Rain = 0
KSB1 182334Z 30021G26KT 16/01 A2995 RMK A01 T01630012  RH  036%=      5-min Rain = 0
KSB1 182335Z 30019KT 16/01 A2995 RMK A01 T01630012  RH  036%=      5-min Rain = 0
KSB1 182336Z 30018G26KT 16/01 A2995 RMK A01 T01630012  RH  036%=      5-min Rain = 0
KSB1 182337Z 30019KT 16/01 A2995 RMK A01 T01620012  RH  036%=      5-min Rain = 0
KSB1 182338Z 29016G21KT 16/01 A2995 RMK A01 T01620011  RH  036%=      5-min Rain = 0
KSB1 182339Z 30015KT 16/01 A2995 RMK A01 T01620012  RH  036%=      5-min Rain = 0
KSB1 182340Z 31013KT 16/01 A2995 RMK A01 T01620012  RH  036%=      5-min Rain = 0
KSB1 182341Z 30014KT 16/01 A2995 RMK A01 T01620011  RH  036%=      5-min Rain = 0
KSB1 182342Z 29017G22KT 16/01 A2995 RMK A01 T01620011  RH  036%=      5-min Rain = 0
KSB1 182343Z 29019G25KT 16/01 A2995 RMK A01 T01610011  RH  036%=      5-min Rain = 0
KSB1 182344Z 29018KT 16/01 A2995 RMK A01 T01610011  RH  036%=      5-min Rain = 0
KSB1 182345Z 30023KT 16/01 A2995 RMK A01 T01600011  RH  036%=      5-min Rain = 0
KSB1 182346Z 29017KT 16/01 A2995 RMK A01 T01600010  RH  036%=      5-min Rain = 0
KSB1 182347Z 29013KT 16/01 A2995 RMK A01 T01600010  RH  036%=      5-min Rain = 0
KSB1 182348Z 29014G19KT 16/01 A2995 RMK A01 T01590010  RH  036%=      5-min Rain = 0
KSB1 182349Z 28014G21KT 16/01 A2995 RMK A01 T01600010  RH  036%=      5-min Rain = 0
KSB1 182350Z 29019G26KT 16/01 A2995 RMK A01 T01600010  RH  036%=      5-min Rain = 0
KSB1 182351Z 29016G22KT 16/01 A2995 RMK A01 T01590010  RH  036%=      5-min Rain = 0
KSB1 182352Z 30013KT 16/01 A2995 RMK A01 T01590010  RH  036%=      5-min Rain = 0
KSB1 182353Z 30012KT 16/01 A2996 RMK A01 T01580010  RH  037%=      5-min Rain = 0
KSB1 182354Z 29010KT 16/01 A2996 RMK A01 T01580011  RH  037%=      5-min Rain = 0
KSB1 182355Z 30015G21KT 16/01 A2996 RMK A01 T01580011  RH  037%=      5-min Rain = 0
KSB1 182356Z 30017G23KT 16/01 A2995 RMK A01 T01580011  RH  037%=      5-min Rain = 0
KSB1 182357Z 30018G23KT 16/01 A2995 RMK A01 T01570011  RH  037%=      5-min Rain = 0
KSB1 182358Z 31015KT 16/01 A2996 RMK A01 T01570011  RH  037%=      5-min Rain = 0
KSB1 182359Z 31018G23KT 16/01 A2996 RMK A01 T01570012  RH  037%=      5-min Rain = 0
KSB1 190000Z 31020KT 16/01 A2996 RMK A01 T01560012  RH  038%=      5-min Rain = 0
KSB1 190001Z 31019KT 16/01 A2996 RMK A01 T01550014  RH  038%=      5-min Rain = 0
KSB1 190002Z 31017KT 15/01 A2996 RMK A01 T01540014  RH  039%=      5-min Rain = 0
KSB1 190003Z 29017KT 15/02 A2996 RMK A01 T01540015  RH  039%=      5-min Rain = 0
KSB1 190004Z 29017KT 15/02 A2996 RMK A01 T01530015  RH  039%=      5-min Rain = 0
KSB1 190005Z 29015G21KT 15/02 A2996 RMK A01 T01530015  RH  039%=      5-min Rain = 0
KSB1 190006Z 30015G22KT 15/02 A2996 RMK A01 T01520015  RH  039%=      5-min Rain = 0
KSB1 190007Z 30017KT 15/02 A2996 RMK A01 T01520015  RH  040%=      5-min Rain = 0
KSB1 190008Z 30017KT 15/02 A2996 RMK A01 T01520015  RH  040%=      5-min Rain = 0
KSB1 190009Z 30015KT 15/02 A2996 RMK A01 T01510015  RH  040%=      5-min Rain = 0
KSB1 190010Z 31017G24KT 15/02 A2996 RMK A01 T01510015  RH  040%=      5-min Rain = 0
KSB1 190011Z 30018KT 15/02 A2996 RMK A01 T01510015  RH  040%=      5-min Rain = 0
KSB1 190012Z 31017G23KT 15/02 A2996 RMK A01 T01510015  RH  040%=      5-min Rain = 0
KSB1 190013Z 31020G25KT 15/02 A2996 RMK A01 T01510016  RH  040%=      5-min Rain = 0
KSB1 190014Z 31019KT 15/02 A2996 RMK A01 T01500015  RH  040%=      5-min Rain = 0
KSB1 190015Z 31016G21KT 15/02 A2996 RMK A01 T01500015  RH  040%=      5-min Rain = 0
KSB1 190016Z 30019G24KT 15/02 A2996 RMK A01 T01500016  RH  040%=      5-min Rain = 0
KSB1 190017Z 30018KT 15/02 A2996 RMK A01 T01500015  RH  040%=      5-min Rain = 0
KSB1 190018Z 30017G22KT 15/02 A2996 RMK A01 T01500015  RH  040%=      5-min Rain = 0
KSB1 190019Z 30018KT 15/02 A2996 RMK A01 T01500015  RH  040%=      5-min Rain = 0
KSB1 190020Z 31019G26KT 15/02 A2996 RMK A01 T01490015  RH  040%=      5-min Rain = 0
KSB1 190021Z 30016KT 15/02 A2996 RMK A01 T01490015  RH  040%=      5-min Rain = 0
KSB1 190022Z 30012G17KT 15/02 A2997 RMK A01 T01490015  RH  040%=      5-min Rain = 0
KSB1 190023Z 30013G20KT 15/02 A2997 RMK A01 T01480015  RH  041%=      5-min Rain = 0
KSB1 190024Z 30017G23KT 15/02 A2997 RMK A01 T01480015  RH  041%=      5-min Rain = 0
KSB1 190025Z 30015G21KT 15/02 A2997 RMK A01 T01480015  RH  041%=      5-min Rain = 0
KSB1 190026Z 31018KT 15/02 A2997 RMK A01 T01480015  RH  041%=      5-min Rain = 0
KSB1 190027Z 30016KT 15/01 A2997 RMK A01 T01470014  RH  040%=      5-min Rain = 0
KSB1 190028Z 30015KT 15/01 A2997 RMK A01 T01470014  RH  040%=      5-min Rain = 0
KSB1 190029Z 29014KT 15/01 A2997 RMK A01 T01470014  RH  040%=      5-min Rain = 0
KSB1 190030Z 30012G17KT 15/01 A2997 RMK A01 T01470014  RH  040%=      5-min Rain = 0
KSB1 190031Z 30013KT 15/01 A2997 RMK A01 T01470014  RH  040%=      5-min Rain = 0
KSB1 190032Z 30014G21KT 15/01 A2997 RMK A01 T01460013  RH  040%=      5-min Rain = 0
KSB1 190033Z 30016KT 15/01 A2997 RMK A01 T01460013  RH  040%=      5-min Rain = 0
KSB1 190034Z 30018KT 15/01 A2997 RMK A01 T01460012  RH  040%=      5-min Rain = 0
KSB1 190035Z 30015KT 15/01 A2997 RMK A01 T01460012  RH  040%=      5-min Rain = 0
KSB1 190036Z 31016G22KT 15/01 A2996 RMK A01 T01460012  RH  040%=      5-min Rain = 0
KSB1 190037Z 31020G28KT 15/01 A2996 RMK A01 T01460011  RH  040%=      5-min Rain = 0
KSB1 190038Z 31021G27KT 15/01 A2996 RMK A01 T01460010  RH  040%=      5-min Rain = 0
KSB1 190039Z 30020G26KT 15/01 A2996 RMK A01 T01460010  RH  040%=      5-min Rain = 0
KSB1 190040Z 30023G29KT 15/01 A2996 RMK A01 T01460010  RH  039%=      5-min Rain = 0
KSB1 190041Z 30022G27KT 15/01 A2996 RMK A01 T01460009  RH  039%=      5-min Rain = 0
KSB1 190042Z 31019G25KT 15/01 A2996 RMK A01 T01460009  RH  039%=      5-min Rain = 0
KSB1 190043Z 31020G25KT 15/01 A2996 RMK A01 T01450009  RH  039%=      5-min Rain = 0
KSB1 190044Z 30024G30KT 15/01 A2996 RMK A01 T01450009  RH  039%=      5-min Rain = 0
KSB1 190045Z 31021G27KT 15/01 A2996 RMK A01 T01450009  RH  039%=      5-min Rain = 0
KSB1 190046Z 30024G30KT 15/01 A2996 RMK A01 T01450008  RH  039%=      5-min Rain = 0
KSB1 190047Z 31026KT 15/01 A2997 RMK A01 T01450008  RH  039%=      5-min Rain = 0
KSB1 190048Z 31022G27KT 15/01 A2997 RMK A01 T01450008  RH  039%=      5-min Rain = 0
KSB1 190049Z 31022G27KT 15/01 A2997 RMK A01 T01450008  RH  039%=      5-min Rain = 0
KSB1 190050Z 31024G32KT 15/01 A2997 RMK A01 T01450008  RH  039%=      5-min Rain = 0
KSB1 190051Z 31022G29KT 15/01 A2997 RMK A01 T01450008  RH  039%=      5-min Rain = 0
KSB1 190052Z 30026G31KT 14/01 A2997 RMK A01 T01440008  RH  039%=      5-min Rain = 0
KSB1 190053Z 31022KT 14/01 A2997 RMK A01 T01440007  RH  039%=      5-min Rain = 0
KSB1 190054Z 31021KT 14/01 A2998 RMK A01 T01440007  RH  039%=      5-min Rain = 0
KSB1 190055Z 31021KT 14/01 A2998 RMK A01 T01440007  RH  039%=      5-min Rain = 0
KSB1 190056Z 31023KT 14/01 A2998 RMK A01 T01440007  RH  039%=      5-min Rain = 0
KSB1 190057Z 32019G24KT 14/01 A2998 RMK A01 T01440006  RH  039%=      5-min Rain = 0
KSB1 190058Z 32020G27KT 14/01 A2998 RMK A01 T01440006  RH  039%=      5-min Rain = 0
KSB1 190059Z 34013KT 14/M00 A2999 RMK A01 T01411002  RH  037%=      5-min Rain = 0
KSB1 190100Z 33014KT 13/M02 A2999 RMK A01 T01311016  RH  036%=      5-min Rain = 0
KSB1 190101Z 34014KT 12/M02 A2999 RMK A01 T01221019  RH  037%=      5-min Rain = 0
KSB1 190102Z 34013KT 12/M02 A2999 RMK A01 T01161020  RH  038%=      5-min Rain = 0
KSB1 190103Z 33015KT 11/M02 A2999 RMK A01 T01131021  RH  039%=      5-min Rain = 0
KSB1 190104Z 33016KT 11/M02 A2999 RMK A01 T01111022  RH  039%=      5-min Rain = 0
KSB1 190105Z 34017KT 11/M02 A2999 RMK A01 T01101023  RH  040%=      5-min Rain = 0
KSB1 190106Z 34015G20KT 11/M02 A30 RMK A01 T01081023  RH  040%=      5-min Rain = 0
KSB1 190107Z 34015KT 11/M02 A30 RMK A01 T01081024  RH  040%=      5-min Rain = 0
KSB1 190108Z 33015KT 11/M03 A30 RMK A01 T01071025  RH  040%=      5-min Rain = 0
KSB1 190109Z 34014KT 11/M03 A30 RMK A01 T01061026  RH  040%=      5-min Rain = 0
KSB1 190110Z 34012KT 11/M03 A30 RMK A01 T01051027  RH  040%=      5-min Rain = 0
KSB1 190111Z 33012KT 11/M03 A30 RMK A01 T01051027  RH  040%=      5-min Rain = 0
KSB1 190112Z 33013KT 10/M03 A30 RMK A01 T01041027  RH  040%=      5-min Rain = 0
KSB1 190113Z 33010KT 10/M03 A3001 RMK A01 T01041027  RH  040%=      5-min Rain = 0
KSB1 190114Z 33012KT 10/M03 A3001 RMK A01 T01031027  RH  040%=      5-min Rain = 0
KSB1 190115Z 33014KT 10/M03 A3001 RMK A01 T01031028  RH  040%=      5-min Rain = 0
KSB1 190116Z 33013KT 10/M03 A3001 RMK A01 T01031029  RH  039%=      5-min Rain = 0
KSB1 190117Z 33015KT 10/M03 A3001 RMK A01 T01031030  RH  039%=      5-min Rain = 0
KSB1 190118Z 33012KT 10/M03 A3001 RMK A01 T01031031  RH  039%=      5-min Rain = 0
KSB1 190119Z 32012KT 10/M03 A3001 RMK A01 T01031031  RH  039%=      5-min Rain = 0
KSB1 190120Z 33013KT 10/M03 A3001 RMK A01 T01021032  RH  039%=      5-min Rain = 0
KSB1 190121Z 33013KT 10/M03 A3001 RMK A01 T01021032  RH  039%=      5-min Rain = 0
KSB1 190122Z 33011KT 10/M03 A3001 RMK A01 T01021033  RH  039%=      5-min Rain = 0
KSB1 190123Z 33014KT 10/M03 A3002 RMK A01 T01011033  RH  039%=      5-min Rain = 0
KSB1 190124Z 33011KT 10/M03 A3002 RMK A01 T01011034  RH  038%=      5-min Rain = 0
KSB1 190125Z 33010KT 10/M04 A3002 RMK A01 T01011035  RH  038%=      5-min Rain = 0
KSB1 190126Z 33012KT 10/M04 A3002 RMK A01 T01011035  RH  038%=      5-min Rain = 0
KSB1 190127Z 32011KT 10/M04 A3002 RMK A01 T01001035  RH  038%=      5-min Rain = 0
KSB1 190128Z 32008KT 10/M04 A3002 RMK A01 T01001035  RH  038%=      5-min Rain = 0
KSB1 190129Z 32009KT 10/M04 A3002 RMK A01 T01001035  RH  038%=      5-min Rain = 0
KSB1 190130Z 32009KT 10/M04 A3002 RMK A01 T01001036  RH  038%=      5-min Rain = 0
KSB1 190131Z 32010KT 10/M04 A3002 RMK A01 T00991037  RH  038%=      5-min Rain = 0
KSB1 190132Z 32013KT 10/M04 A3002 RMK A01 T00991038  RH  038%=      5-min Rain = 0
KSB1 190133Z 32008KT 10/M04 A3002 RMK A01 T00991039  RH  038%=      5-min Rain = 0
KSB1 190134Z 32009KT 10/M04 A3002 RMK A01 T00991039  RH  038%=      5-min Rain = 0
KSB1 190135Z 32009KT 10/M04 A3002 RMK A01 T01001038  RH  038%=      5-min Rain = 0
KSB1 190136Z 33014KT 10/M04 A3002 RMK A01 T00991039  RH  038%=      5-min Rain = 0
KSB1 190137Z 33010KT 10/M04 A3002 RMK A01 T00991040  RH  037%=      5-min Rain = 0
KSB1 190138Z 34014KT 10/M04 A3002 RMK A01 T00991040  RH  037%=      5-min Rain = 0
KSB1 190139Z 34013KT 10/M04 A3002 RMK A01 T00991040  RH  037%=      5-min Rain = 0
KSB1 190140Z 33013KT 10/M04 A3002 RMK A01 T00991040  RH  037%=      5-min Rain = 0
KSB1 190141Z 33011KT 10/M04 A3003 RMK A01 T00991041  RH  037%=      5-min Rain = 0
KSB1 190142Z 33014KT 10/M04 A3003 RMK A01 T00991040  RH  037%=      5-min Rain = 0
KSB1 190143Z 33014KT 10/M04 A3003 RMK A01 T00991040  RH  037%=      5-min Rain = 0
KSB1 190144Z 33015G20KT 10/M04 A3003 RMK A01 T00991041  RH  037%=      5-min Rain = 0
KSB1 190145Z 33013KT 10/M04 A3002 RMK A01 T00991041  RH  037%=      5-min Rain = 0
KSB1 190146Z 33010KT 10/M04 A3003 RMK A01 T00991041  RH  037%=      5-min Rain = 0
KSB1 190147Z 33012G18KT 10/M04 A3002 RMK A01 T00991040  RH  037%=      5-min Rain = 0
KSB1 190148Z 33013KT 10/M04 A3003 RMK A01 T00991041  RH  037%=      5-min Rain = 0
KSB1 190149Z 33012KT 10/M04 A3003 RMK A01 T00991041  RH  037%=      5-min Rain = 0
KSB1 190150Z 33015KT 10/M04 A3003 RMK A01 T00991041  RH  037%=      5-min Rain = 0
KSB1 190151Z 33014KT 10/M04 A3003 RMK A01 T00991042  RH  037%=      5-min Rain = 0
KSB1 190152Z 33014G20KT 10/M04 A3003 RMK A01 T00991042  RH  037%=      5-min Rain = 0
KSB1 190153Z 33013KT 10/M04 A3003 RMK A01 T00991042  RH  037%=      5-min Rain = 0
KSB1 190154Z 33012KT 10/M04 A3003 RMK A01 T00991041  RH  037%=      5-min Rain = 0
KSB1 190155Z 33011KT 10/M04 A3003 RMK A01 T00991042  RH  037%=      5-min Rain = 0
KSB1 190156Z 33012KT 10/M04 A3003 RMK A01 T00981041  RH  037%=      5-min Rain = 0
KSB1 190157Z 33013KT 10/M04 A3003 RMK A01 T00981041  RH  037%=      5-min Rain = 0
KSB1 190158Z 33013KT 10/M04 A3003 RMK A01 T00981041  RH  037%=      5-min Rain = 0
KSB1 190159Z 33011KT 10/M04 A3003 RMK A01 T00991041  RH  037%=      5-min Rain = 0
KSB1 190200Z 33010KT 10/M04 A3003 RMK A01 T00991040  RH  037%=      5-min Rain = 0
KSB1 190201Z 32011KT 10/M04 A3004 RMK A01 T00981040  RH  037%=      5-min Rain = 0
KSB1 190202Z 32012KT 10/M04 A3004 RMK A01 T00981040  RH  038%=      5-min Rain = 0
KSB1 190203Z 32013G19KT 10/M04 A3004 RMK A01 T00981041  RH  037%=      5-min Rain = 0
KSB1 190204Z 32011G16KT 10/M04 A3004 RMK A01 T00981041  RH  037%=      5-min Rain = 0
KSB1 190205Z 32013KT 10/M04 A3004 RMK A01 T00981041  RH  037%=      5-min Rain = 0
KSB1 190206Z 32013G18KT 10/M04 A3004 RMK A01 T00981041  RH  037%=      5-min Rain = 0
KSB1 190207Z 32010KT 10/M04 A3004 RMK A01 T00981041  RH  037%=      5-min Rain = 0
KSB1 190208Z 32010KT 10/M04 A3004 RMK A01 T00981040  RH  037%=      5-min Rain = 0
KSB1 190209Z 31009KT 10/M04 A3004 RMK A01 T00981039  RH  038%=      5-min Rain = 0
KSB1 190210Z 32010KT 10/M04 A3004 RMK A01 T00981039  RH  038%=      5-min Rain = 0
KSB1 190211Z 32013KT 10/M04 A3004 RMK A01 T00981039  RH  038%=      5-min Rain = 0
KSB1 190212Z 32011KT 10/M04 A3004 RMK A01 T00991038  RH  038%=      5-min Rain = 0
KSB1 190213Z 32011KT 10/M04 A3004 RMK A01 T00991038  RH  038%=      5-min Rain = 0
KSB1 190214Z 32011KT 10/M04 A3004 RMK A01 T00991038  RH  038%=      5-min Rain = 0
KSB1 190215Z 32009KT 10/M04 A3004 RMK A01 T00991038  RH  038%=      5-min Rain = 0
KSB1 190216Z 32013KT 10/M04 A3004 RMK A01 T00991037  RH  038%=      5-min Rain = 0
KSB1 190217Z 31013KT 10/M04 A3004 RMK A01 T01001037  RH  038%=      5-min Rain = 0
KSB1 190218Z 31012KT 10/M04 A3004 RMK A01 T01001037  RH  038%=      5-min Rain = 0
KSB1 190219Z 31012KT 10/M04 A3004 RMK A01 T01011037  RH  038%=      5-min Rain = 0
KSB1 190220Z 31011G16KT 10/M04 A3004 RMK A01 T01011037  RH  038%=      5-min Rain = 0
KSB1 190221Z 32012G17KT 10/M04 A3004 RMK A01 T01011036  RH  038%=      5-min Rain = 0
KSB1 190222Z 32012KT 10/M04 A3005 RMK A01 T01011036  RH  038%=      5-min Rain = 0
KSB1 190223Z 32012KT 10/M04 A3005 RMK A01 T01021035  RH  038%=      5-min Rain = 0
KSB1 190224Z 31011KT 10/M03 A3005 RMK A01 T01021034  RH  038%=      5-min Rain = 0
KSB1 190225Z 32010KT 10/M03 A3005 RMK A01 T01031033  RH  038%=      5-min Rain = 0
KSB1 190226Z 31014G19KT 10/M03 A3005 RMK A01 T01031032  RH  039%=      5-min Rain = 0
KSB1 190227Z 31018KT 10/M03 A3004 RMK A01 T01041032  RH  038%=      5-min Rain = 0
KSB1 190228Z 31019G25KT 11/M03 A3004 RMK A01 T01071032  RH  038%=      5-min Rain = 0
KSB1 190229Z 30021KT 11/M03 A3004 RMK A01 T01081032  RH  037%=      5-min Rain = 0
KSB1 190230Z 31019KT 11/M03 A3004 RMK A01 T01081032  RH  037%=      5-min Rain = 0
KSB1 190231Z 30019KT 11/M03 A3004 RMK A01 T01091032  RH  037%=      5-min Rain = 0
KSB1 190232Z 31022G27KT 11/M03 A3004 RMK A01 T01091032  RH  037%=      5-min Rain = 0
KSB1 190233Z 30020KT 11/M03 A3004 RMK A01 T01091033  RH  037%=      5-min Rain = 0
KSB1 190234Z 30020G25KT 11/M03 A3004 RMK A01 T01091033  RH  037%=      5-min Rain = 0
KSB1 190235Z 30019KT 11/M03 A3004 RMK A01 T01091032  RH  037%=      5-min Rain = 0
KSB1 190236Z 30020KT 11/M03 A3004 RMK A01 T01091033  RH  037%=      5-min Rain = 0
KSB1 190237Z 30020KT 11/M03 A3004 RMK A01 T01091033  RH  037%=      5-min Rain = 0
KSB1 190238Z 31018G24KT 11/M03 A3004 RMK A01 T01081033  RH  037%=      5-min Rain = 0
KSB1 190239Z 31020G26KT 11/M03 A3004 RMK A01 T01081034  RH  037%=      5-min Rain = 0
KSB1 190240Z 31017G24KT 11/M03 A3004 RMK A01 T01081033  RH  037%=      5-min Rain = 0
KSB1 190241Z 31019KT 11/M03 A3004 RMK A01 T01071034  RH  037%=      5-min Rain = 0
KSB1 190242Z 31020KT 11/M03 A3004 RMK A01 T01061034  RH  037%=      5-min Rain = 0
KSB1 190243Z 31016G21KT 11/M04 A3005 RMK A01 T01061035  RH  037%=      5-min Rain = 0
KSB1 190244Z 32017G22KT 11/M04 A3005 RMK A01 T01051035  RH  037%=      5-min Rain = 0
KSB1 190245Z 31014KT 10/M04 A3005 RMK A01 T01041035  RH  038%=      5-min Rain = 0
KSB1 190246Z 31013KT 10/M04 A3005 RMK A01 T01041035  RH  038%=      5-min Rain = 0
KSB1 190247Z 32012KT 10/M04 A3005 RMK A01 T01031035  RH  038%=      5-min Rain = 0
KSB1 190248Z 32016KT 10/M04 A3005 RMK A01 T01021035  RH  038%=      5-min Rain = 0
KSB1 190249Z 32015KT 10/M03 A3006 RMK A01 T01021034  RH  038%=      5-min Rain = 0
KSB1 190250Z 32016G21KT 10/M03 A3006 RMK A01 T01021034  RH  038%=      5-min Rain = 0
KSB1 190251Z 32014KT 10/M03 A3006 RMK A01 T01021034  RH  038%=      5-min Rain = 0
KSB1 190252Z 32013G22KT 10/M03 A3006 RMK A01 T01031034  RH  038%=      5-min Rain = 0
KSB1 190253Z 32013G18KT 10/M03 A3006 RMK A01 T01031034  RH  038%=      5-min Rain = 0
KSB1 190254Z 32015G22KT 10/M03 A3006 RMK A01 T01031033  RH  038%=      5-min Rain = 0
KSB1 190255Z 31014KT 10/M03 A3006 RMK A01 T01031033  RH  038%=      5-min Rain = 0
KSB1 190256Z 32012KT 10/M03 A3006 RMK A01 T01041033  RH  038%=      5-min Rain = 0
KSB1 190257Z 32011KT 10/M03 A3007 RMK A01 T01041033  RH  038%=      5-min Rain = 0
KSB1 190258Z 32014KT 10/M03 A3007 RMK A01 T01031033  RH  038%=      5-min Rain = 0
KSB1 190259Z 32014KT 10/M03 A3007 RMK A01 T01031032  RH  038%=      5-min Rain = 0
KSB1 190300Z 33015KT 10/M03 A3007 RMK A01 T01041032  RH  038%=      5-min Rain = 0
KSB1 190301Z 33013KT 10/M03 A3007 RMK A01 T01041032  RH  038%=      5-min Rain = 0
KSB1 190302Z 33012KT 10/M03 A3007 RMK A01 T01041032  RH  038%=      5-min Rain = 0
KSB1 190303Z 32013KT 11/M03 A3007 RMK A01 T01051031  RH  039%=      5-min Rain = 0
KSB1 190304Z 33012G17KT 10/M03 A3008 RMK A01 T01041031  RH  039%=      5-min Rain = 0
KSB1 190305Z 33014KT 11/M03 A3008 RMK A01 T01051030  RH  039%=      5-min Rain = 0
KSB1 190306Z 33011KT 11/M03 A3008 RMK A01 T01051029  RH  039%=      5-min Rain = 0
KSB1 190307Z 32010G16KT 11/M03 A3008 RMK A01 T01051030  RH  039%=      5-min Rain = 0
KSB1 190308Z 34012KT 10/M03 A3008 RMK A01 T01041029  RH  039%=      5-min Rain = 0
KSB1 190309Z 34013KT 10/M03 A3008 RMK A01 T01041029  RH  039%=      5-min Rain = 0
KSB1 190310Z 34016KT 11/M03 A3008 RMK A01 T01051031  RH  038%=      5-min Rain = 0
KSB1 190311Z 33014KT 11/M03 A3008 RMK A01 T01061032  RH  038%=      5-min Rain = 0
KSB1 190312Z 34014KT 11/M03 A3008 RMK A01 T01061033  RH  038%=      5-min Rain = 0
KSB1 190313Z 34015KT 11/M03 A3008 RMK A01 T01061033  RH  038%=      5-min Rain = 0
KSB1 190314Z 34013KT 11/M04 A3008 RMK A01 T01051035  RH  037%=      5-min Rain = 0
KSB1 190315Z 34013KT 11/M04 A3008 RMK A01 T01051035  RH  037%=      5-min Rain = 0
KSB1 190316Z 35012KT 10/M04 A3008 RMK A01 T01041036  RH  037%=      5-min Rain = 0
KSB1 190317Z 35013KT 10/M04 A3008 RMK A01 T01041035  RH  037%=      5-min Rain = 0
KSB1 190318Z 35012KT 10/M04 A3009 RMK A01 T01021036  RH  038%=      5-min Rain = 0
KSB1 190319Z 34013KT 10/M04 A3009 RMK A01 T01011036  RH  038%=      5-min Rain = 0
KSB1 190320Z 34012KT 10/M04 A3009 RMK A01 T01011037  RH  038%=      5-min Rain = 0
KSB1 190321Z 35013KT 10/M04 A3009 RMK A01 T01001037  RH  038%=      5-min Rain = 0
KSB1 190322Z 36012KT 10/M04 A3009 RMK A01 T01001037  RH  038%=      5-min Rain = 0
KSB1 190323Z 35009KT 10/M04 A3009 RMK A01 T01001037  RH  038%=      5-min Rain = 0
KSB1 190324Z 35010KT 10/M04 A3009 RMK A01 T00991038  RH  038%=      5-min Rain = 0
KSB1 190325Z 35010KT 10/M04 A3009 RMK A01 T00971038  RH  038%=      5-min Rain = 0
KSB1 190326Z 35012G18KT 10/M04 A3009 RMK A01 T00971038  RH  038%=      5-min Rain = 0
KSB1 190327Z 36011KT 10/M04 A3009 RMK A01 T00971039  RH  038%=      5-min Rain = 0
KSB1 190328Z 35011KT 10/M04 A301 RMK A01 T00971039  RH  038%=      5-min Rain = 0
KSB1 190329Z 36012KT 10/M04 A301 RMK A01 T00961039  RH  038%=      5-min Rain = 0
KSB1 190330Z 35015KT 10/M04 A301 RMK A01 T00961040  RH  038%=      5-min Rain = 0
KSB1 190331Z 35015KT 10/M04 A301 RMK A01 T00971041  RH  038%=      5-min Rain = 0
KSB1 190332Z 35013KT 10/M04 A301 RMK A01 T00981042  RH  037%=      5-min Rain = 0
KSB1 190333Z 36013KT 10/M04 A301 RMK A01 T00981041  RH  037%=      5-min Rain = 0
KSB1 190334Z 36014KT 10/M04 A301 RMK A01 T00981042  RH  037%=      5-min Rain = 0
KSB1 190335Z 36012KT 10/M04 A301 RMK A01 T00971042  RH  037%=      5-min Rain = 0
KSB1 190336Z 00014KT 10/M04 A301 RMK A01 T00961043  RH  037%=      5-min Rain = 0
KSB1 190337Z 36016KT 10/M04 A301 RMK A01 T00961043  RH  037%=      5-min Rain = 0
KSB1 190338Z 00014KT 10/M04 A301 RMK A01 T00961044  RH  037%=      5-min Rain = 0
KSB1 190339Z 35014KT 10/M05 A301 RMK A01 T00961045  RH  037%=      5-min Rain = 0
KSB1 190340Z 36013KT 10/M05 A301 RMK A01 T00961045  RH  037%=      5-min Rain = 0
KSB1 190341Z 00014KT 10/M05 A301 RMK A01 T00951045  RH  037%=      5-min Rain = 0
KSB1 190342Z 36013KT 10/M05 A301 RMK A01 T00951045  RH  037%=      5-min Rain = 0
KSB1 190343Z 35013KT 10/M05 A301 RMK A01 T00951045  RH  037%=      5-min Rain = 0
KSB1 190344Z 36012KT 10/M05 A301 RMK A01 T00951045  RH  037%=      5-min Rain = 0
KSB1 190345Z 36012KT 09/M05 A301 RMK A01 T00941045  RH  037%=      5-min Rain = 0
KSB1 190346Z 35012KT 09/M05 A301 RMK A01 T00941046  RH  037%=      5-min Rain = 0
KSB1 190347Z 36011G17KT 09/M05 A301 RMK A01 T00941046  RH  037%=      5-min Rain = 0
KSB1 190348Z 36015G20KT 09/M05 A301 RMK A01 T00941046  RH  037%=      5-min Rain = 0
KSB1 190349Z 36014KT 09/M05 A3011 RMK A01 T00941046  RH  037%=      5-min Rain = 0
KSB1 190350Z 35011KT 09/M05 A3011 RMK A01 T00941046  RH  037%=      5-min Rain = 0
KSB1 190351Z 35009KT 09/M05 A3011 RMK A01 T00941046  RH  037%=      5-min Rain = 0
KSB1 190352Z 35010KT 09/M05 A3011 RMK A01 T00941045  RH  037%=      5-min Rain = 0
KSB1 190353Z 36010KT 09/M05 A3011 RMK A01 T00931046  RH  037%=      5-min Rain = 0
KSB1 190354Z 00010KT 09/M05 A3012 RMK A01 T00921046  RH  037%=      5-min Rain = 0
KSB1 190355Z 00011KT 09/M05 A3012 RMK A01 T00911046  RH  038%=      5-min Rain = 0
KSB1 190356Z 36010KT 09/M05 A3012 RMK A01 T00911046  RH  038%=      5-min Rain = 0
KSB1 190357Z 36010KT 09/M05 A3012 RMK A01 T00911046  RH  038%=      5-min Rain = 0
KSB1 190358Z 36013KT 09/M05 A3012 RMK A01 T00901046  RH  038%=      5-min Rain = 0
KSB1 190359Z 36011KT 09/M05 A3012 RMK A01 T00901046  RH  038%=      5-min Rain = 0
KSB1 190400Z 00012KT 09/M05 A3012 RMK A01 T00911046  RH  038%=      5-min Rain = 0
KSB1 190401Z 36012KT 09/M05 A3012 RMK A01 T00911046  RH  038%=      5-min Rain = 0
KSB1 190402Z 36011KT 09/M05 A3012 RMK A01 T00911046  RH  038%=      5-min Rain = 0
KSB1 190403Z 36011KT 09/M05 A3013 RMK A01 T00911046  RH  038%=      5-min Rain = 0
KSB1 190404Z 36012KT 09/M05 A3013 RMK A01 T00911046  RH  038%=      5-min Rain = 0
KSB1 190405Z 35010KT 09/M05 A3013 RMK A01 T00911046  RH  038%=      5-min Rain = 0
KSB1 190406Z 35009KT 09/M05 A3013 RMK A01 T00901047  RH  038%=      5-min Rain = 0
KSB1 190407Z 34008KT 09/M05 A3013 RMK A01 T00901046  RH  038%=      5-min Rain = 0
KSB1 190408Z 34009KT 09/M05 A3013 RMK A01 T00891046  RH  038%=      5-min Rain = 0
KSB1 190409Z 34010KT 09/M05 A3013 RMK A01 T00891046  RH  038%=      5-min Rain = 0
KSB1 190410Z 34009KT 09/M05 A3013 RMK A01 T00901046  RH  038%=      5-min Rain = 0
KSB1 190411Z 34008KT 09/M05 A3013 RMK A01 T00891046  RH  038%=      5-min Rain = 0
KSB1 190412Z 33010KT 09/M05 A3013 RMK A01 T00891047  RH  038%=      5-min Rain = 0
KSB1 190413Z 33009KT 09/M05 A3013 RMK A01 T00881047  RH  038%=      5-min Rain = 0
KSB1 190414Z 33009KT 09/M05 A3013 RMK A01 T00881046  RH  038%=      5-min Rain = 0
KSB1 190415Z 32008KT 09/M05 A3013 RMK A01 T00881047  RH  038%=      5-min Rain = 0
KSB1 190416Z 32009KT 09/M05 A3013 RMK A01 T00881047  RH  038%=      5-min Rain = 0
KSB1 190417Z 32009KT 09/M05 A3013 RMK A01 T00881047  RH  038%=      5-min Rain = 0
KSB1 190418Z 32008KT 09/M05 A3013 RMK A01 T00881047  RH  038%=      5-min Rain = 0
KSB1 190419Z 32009KT 09/M05 A3013 RMK A01 T00881047  RH  038%=      5-min Rain = 0
KSB1 190420Z 32010KT 09/M05 A3013 RMK A01 T00881046  RH  038%=      5-min Rain = 0
KSB1 190421Z 32007KT 09/M05 A3013 RMK A01 T00881047  RH  038%=      5-min Rain = 0
KSB1 190422Z 32008KT 09/M05 A3013 RMK A01 T00881047  RH  038%=      5-min Rain = 0
KSB1 190423Z 32007KT 09/M05 A3013 RMK A01 T00881047  RH  038%=      5-min Rain = 0
KSB1 190424Z 33008KT 09/M05 A3013 RMK A01 T00881047  RH  038%=      5-min Rain = 0
KSB1 190425Z 33007KT 09/M05 A3013 RMK A01 T00881047  RH  038%=      5-min Rain = 0
KSB1 190426Z 33008KT 09/M05 A3013 RMK A01 T00881047  RH  038%=      5-min Rain = 0
KSB1 190427Z 33008KT 09/M05 A3013 RMK A01 T00881047  RH  038%=      5-min Rain = 0
KSB1 190428Z 33008KT 09/M05 A3014 RMK A01 T00881047  RH  038%=      5-min Rain = 0
KSB1 190429Z 34008KT 09/M05 A3014 RMK A01 T00881047  RH  038%=      5-min Rain = 0
KSB1 190430Z 34006KT 09/M05 A3014 RMK A01 T00871047  RH  038%=      5-min Rain = 0
KSB1 190431Z 34012KT 09/M05 A3014 RMK A01 T00871047  RH  038%=      5-min Rain = 0
KSB1 190432Z 34010KT 09/M05 A3014 RMK A01 T00891048  RH  038%=      5-min Rain = 0
KSB1 190433Z 34011KT 09/M05 A3014 RMK A01 T00901048  RH  037%=      5-min Rain = 0
KSB1 190434Z 00010KT 09/M05 A3014 RMK A01 T00901049  RH  037%=      5-min Rain = 0
KSB1 190435Z 01009KT 09/M05 A3014 RMK A01 T00901048  RH  037%=      5-min Rain = 0
KSB1 190436Z 00009KT 09/M05 A3014 RMK A01 T00891048  RH  038%=      5-min Rain = 0
KSB1 190437Z 00009KT 09/M05 A3014 RMK A01 T00881047  RH  038%=      5-min Rain = 0
KSB1 190438Z 01010KT 09/M05 A3014 RMK A01 T00871048  RH  038%=      5-min Rain = 0
KSB1 190439Z 00011KT 09/M05 A3015 RMK A01 T00861048  RH  038%=      5-min Rain = 0
KSB1 190440Z 00009KT 09/M05 A3015 RMK A01 T00861048  RH  038%=      5-min Rain = 0
KSB1 190441Z 36010KT 09/M05 A3015 RMK A01 T00871048  RH  038%=      5-min Rain = 0
KSB1 190442Z 36009KT 09/M05 A3015 RMK A01 T00861048  RH  038%=      5-min Rain = 0
KSB1 190443Z 36009KT 09/M05 A3015 RMK A01 T00861048  RH  038%=      5-min Rain = 0
KSB1 190444Z 36008KT 09/M05 A3015 RMK A01 T00851049  RH  038%=      5-min Rain = 0
KSB1 190445Z 35009KT 09/M05 A3015 RMK A01 T00851049  RH  038%=      5-min Rain = 0
KSB1 190446Z 36010KT 08/M05 A3015 RMK A01 T00841049  RH  038%=      5-min Rain = 0
KSB1 190447Z 35011KT 08/M05 A3015 RMK A01 T00841050  RH  038%=      5-min Rain = 0
KSB1 190448Z 34010KT 09/M05 A3015 RMK A01 T00851050  RH  038%=      5-min Rain = 0
KSB1 190449Z 31007KT 09/M05 A3016 RMK A01 T00851051  RH  038%=      5-min Rain = 0
KSB1 190450Z 32012KT 09/M05 A3015 RMK A01 T00851052  RH  037%=      5-min Rain = 0
KSB1 190451Z 32011KT 09/M05 A3016 RMK A01 T00871054  RH  036%=      5-min Rain = 0
KSB1 190452Z 32010KT 09/M05 A3016 RMK A01 T00901054  RH  036%=      5-min Rain = 0
KSB1 190453Z 34009KT 09/M05 A3016 RMK A01 T00911053  RH  036%=      5-min Rain = 0
KSB1 190454Z 34008KT 09/M06 A3016 RMK A01 T00901055  RH  035%=      5-min Rain = 0
KSB1 190455Z 34007KT 09/M06 A3016 RMK A01 T00891055  RH  036%=      5-min Rain = 0
KSB1 190456Z 35007KT 09/M05 A3016 RMK A01 T00881054  RH  036%=      5-min Rain = 0
KSB1 190457Z 35009KT 09/M05 A3016 RMK A01 T00871054  RH  036%=      5-min Rain = 0
KSB1 190458Z 35008KT 09/M05 A3016 RMK A01 T00871054  RH  037%=      5-min Rain = 0
KSB1 190459Z 34007KT 09/M05 A3017 RMK A01 T00861053  RH  037%=      5-min Rain = 0
KSB1 190500Z 35008KT 09/M05 A3017 RMK A01 T00851053  RH  037%=      5-min Rain = 0
KSB1 190501Z 34013KT 09/M06 A3017 RMK A01 T00851056  RH  036%=      5-min Rain = 0
KSB1 190502Z 35009KT 09/M06 A3017 RMK A01 T00871059  RH  035%=      5-min Rain = 0
KSB1 190503Z 33009KT 09/M06 A3017 RMK A01 T00881060  RH  034%=      5-min Rain = 0
KSB1 190504Z 33017G22KT 09/M06 A3017 RMK A01 T00881064  RH  033%=      5-min Rain = 0
KSB1 190505Z 33013G18KT 09/M07 A3017 RMK A01 T00921070  RH  031%=      5-min Rain = 0
KSB1 190506Z 32008KT 09/M07 A3017 RMK A01 T00931069  RH  031%=      5-min Rain = 0
KSB1 190507Z 34006KT 09/M07 A3017 RMK A01 T00931065  RH  032%=      5-min Rain = 0
KSB1 190508Z 34008KT 09/M07 A3018 RMK A01 T00921066  RH  032%=      5-min Rain = 0
KSB1 190509Z 35011KT 09/M07 A3018 RMK A01 T00911067  RH  032%=      5-min Rain = 0
KSB1 190510Z 35009KT 09/M07 A3018 RMK A01 T00911069  RH  032%=      5-min Rain = 0
KSB1 190511Z 00008KT 09/M07 A3018 RMK A01 T00911067  RH  032%=      5-min Rain = 0
KSB1 190512Z 36010KT 09/M06 A3018 RMK A01 T00901064  RH  033%=      5-min Rain = 0
KSB1 190513Z 00008KT 09/M06 A3018 RMK A01 T00891062  RH  034%=      5-min Rain = 0
KSB1 190514Z 01010KT 09/M06 A3018 RMK A01 T00881060  RH  034%=      5-min Rain = 0
KSB1 190515Z 36009KT 09/M06 A3018 RMK A01 T00891060  RH  034%=      5-min Rain = 0
KSB1 190516Z 00008KT 09/M06 A3019 RMK A01 T00891060  RH  034%=      5-min Rain = 0
KSB1 190517Z 00008KT 09/M06 A3019 RMK A01 T00891060  RH  034%=      5-min Rain = 0
KSB1 190518Z 00010KT 09/M06 A3019 RMK A01 T00881060  RH  034%=      5-min Rain = 0
KSB1 190519Z 35011KT 09/M06 A3019 RMK A01 T00891060  RH  034%=      5-min Rain = 0
KSB1 190520Z 36009KT 09/M06 A3019 RMK A01 T00901061  RH  034%=      5-min Rain = 0
KSB1 190521Z 36008KT 09/M06 A3019 RMK A01 T00901061  RH  034%=      5-min Rain = 0
KSB1 190522Z 35010KT 09/M06 A3019 RMK A01 T00901060  RH  034%=      5-min Rain = 0
KSB1 190523Z 35010KT 09/M06 A3019 RMK A01 T00901061  RH  034%=      5-min Rain = 0
KSB1 190524Z 34010KT 09/M06 A3019 RMK A01 T00901061  RH  034%=      5-min Rain = 0
KSB1 190525Z 35008KT 09/M06 A3019 RMK A01 T00901061  RH  034%=      5-min Rain = 0
KSB1 190526Z 34008KT 09/M06 A3019 RMK A01 T00901061  RH  034%=      5-min Rain = 0
KSB1 190527Z 35009KT 09/M06 A3019 RMK A01 T00901061  RH  034%=      5-min Rain = 0
KSB1 190528Z 35007KT 09/M06 A3019 RMK A01 T00891061  RH  034%=      5-min Rain = 0
KSB1 190529Z 34005KT 09/M06 A3019 RMK A01 T00881061  RH  034%=      5-min Rain = 0
KSB1 190530Z 34009KT 09/M06 A302 RMK A01 T00871061  RH  034%=      5-min Rain = 0
KSB1 190531Z 34007KT 09/M06 A302 RMK A01 T00871063  RH  034%=      5-min Rain = 0
KSB1 190532Z 34007KT 09/M06 A302 RMK A01 T00871062  RH  034%=      5-min Rain = 0
KSB1 190533Z 34012KT 09/M06 A302 RMK A01 T00871064  RH  034%=      5-min Rain = 0
KSB1 190534Z 33010KT 09/M07 A302 RMK A01 T00871065  RH  033%=      5-min Rain = 0
KSB1 190535Z 34010KT 09/M07 A302 RMK A01 T00861066  RH  033%=      5-min Rain = 0
KSB1 190536Z 34011KT 09/M07 A302 RMK A01 T00871066  RH  033%=      5-min Rain = 0
KSB1 190537Z 34011KT 09/M07 A302 RMK A01 T00861067  RH  033%=      5-min Rain = 0
KSB1 190538Z 33008KT 09/M07 A3021 RMK A01 T00861067  RH  033%=      5-min Rain = 0
KSB1 190539Z 33010KT 09/M07 A3021 RMK A01 T00851067  RH  033%=      5-min Rain = 0
KSB1 190540Z 33012KT 08/M07 A3021 RMK A01 T00841068  RH  033%=      5-min Rain = 0
KSB1 190541Z 33014KT 08/M07 A3021 RMK A01 T00841068  RH  033%=      5-min Rain = 0
KSB1 190542Z 33012KT 08/M07 A3021 RMK A01 T00841068  RH  033%=      5-min Rain = 0
KSB1 190543Z 33012KT 08/M07 A3021 RMK A01 T00831068  RH  033%=      5-min Rain = 0
KSB1 190544Z 32010KT 08/M07 A3021 RMK A01 T00831068  RH  034%=      5-min Rain = 0
KSB1 190545Z 33009G14KT 08/M07 A3021 RMK A01 T00821067  RH  034%=      5-min Rain = 0
KSB1 190546Z 33010KT 08/M07 A3022 RMK A01 T00811067  RH  034%=      5-min Rain = 0
KSB1 190547Z 33008KT 08/M07 A3022 RMK A01 T00811068  RH  034%=      5-min Rain = 0
KSB1 190548Z 34007KT 08/M07 A3022 RMK A01 T00801068  RH  034%=      5-min Rain = 0
KSB1 190549Z 34007KT 08/M07 A3022 RMK A01 T00791068  RH  035%=      5-min Rain = 0
KSB1 190550Z 33007KT 08/M07 A3022 RMK A01 T00781068  RH  035%=      5-min Rain = 0
KSB1 190551Z 34010G17KT 08/M07 A3022 RMK A01 T00781068  RH  035%=      5-min Rain = 0
KSB1 190552Z 34016KT 08/M07 A3022 RMK A01 T00771068  RH  035%=      5-min Rain = 0
KSB1 190553Z 34014KT 08/M07 A3022 RMK A01 T00781066  RH  035%=      5-min Rain = 0
KSB1 190554Z 34014KT 08/M07 A3023 RMK A01 T00791065  RH  035%=      5-min Rain = 0
KSB1 190555Z 34012KT 08/M07 A3023 RMK A01 T00791065  RH  035%=      5-min Rain = 0
KSB1 190556Z 33013G19KT 08/M06 A3023 RMK A01 T00781064  RH  036%=      5-min Rain = 0
KSB1 190557Z 33013KT 08/M06 A3023 RMK A01 T00771064  RH  036%=      5-min Rain = 0
KSB1 190558Z 34012KT 08/M06 A3023 RMK A01 T00771064  RH  036%=      5-min Rain = 0
KSB1 190559Z 35012KT 08/M06 A3023 RMK A01 T00761064  RH  036%=      5-min Rain = 0

Page generated in 0.0361 seconds.